Observation data for Welch on 06/15/2019      Previous  Date  Next       Current Mesonet Observations  Soil Data  Daily Summary Page  Observations in Plain Language
KWE2 150500Z 18012KT 25/18 A2988 RMK A01 T02520184  RH  066%=      5-min Rain = 0
KWE2 150501Z 18012KT 25/18 A2988 RMK A01 T02520184  RH  066%=      5-min Rain = 0
KWE2 150502Z 18011KT 25/18 A2988 RMK A01 T02520184  RH  066%=      5-min Rain = 0
KWE2 150503Z 18012KT 25/18 A2988 RMK A01 T02520184  RH  066%=      5-min Rain = 0
KWE2 150504Z 18011KT 25/18 A2988 RMK A01 T02510184  RH  066%=      5-min Rain = 0
KWE2 150505Z 18011KT 25/18 A2988 RMK A01 T02510184  RH  066%=      5-min Rain = 0
KWE2 150506Z 18011KT 25/18 A2988 RMK A01 T02510184  RH  066%=      5-min Rain = 0
KWE2 150507Z 18011KT 25/18 A2988 RMK A01 T02510184  RH  066%=      5-min Rain = 0
KWE2 150508Z 18011KT 25/18 A2988 RMK A01 T02500184  RH  066%=      5-min Rain = 0
KWE2 150509Z 18011KT 25/18 A2988 RMK A01 T02500184  RH  067%=      5-min Rain = 0
KWE2 150510Z 18011KT 25/18 A2988 RMK A01 T02500184  RH  067%=      5-min Rain = 0
KWE2 150511Z 18012KT 25/18 A2988 RMK A01 T02500184  RH  067%=      5-min Rain = 0
KWE2 150512Z 18011KT 25/18 A2988 RMK A01 T02500184  RH  067%=      5-min Rain = 0
KWE2 150513Z 18010KT 25/18 A2988 RMK A01 T02500184  RH  067%=      5-min Rain = 0
KWE2 150514Z 18011KT 25/18 A2988 RMK A01 T02490184  RH  067%=      5-min Rain = 0
KWE2 150515Z 18010KT 25/18 A2988 RMK A01 T02490184  RH  067%=      5-min Rain = 0
KWE2 150516Z 18010KT 25/18 A2988 RMK A01 T02490184  RH  067%=      5-min Rain = 0
KWE2 150517Z 18010KT 25/18 A2988 RMK A01 T02480184  RH  067%=      5-min Rain = 0
KWE2 150518Z 18010KT 25/18 A2988 RMK A01 T02480184  RH  068%=      5-min Rain = 0
KWE2 150519Z 18009KT 25/18 A2988 RMK A01 T02480184  RH  068%=      5-min Rain = 0
KWE2 150520Z 18009KT 25/18 A2988 RMK A01 T02470184  RH  068%=      5-min Rain = 0
KWE2 150521Z 18009KT 25/18 A2989 RMK A01 T02460184  RH  068%=      5-min Rain = 0
KWE2 150522Z 18010KT 25/18 A2989 RMK A01 T02470184  RH  068%=      5-min Rain = 0
KWE2 150523Z 18010KT 25/18 A2989 RMK A01 T02460184  RH  068%=      5-min Rain = 0
KWE2 150524Z 18010KT 25/18 A2989 RMK A01 T02460184  RH  068%=      5-min Rain = 0
KWE2 150525Z 18010KT 25/18 A2989 RMK A01 T02460184  RH  068%=      5-min Rain = 0
KWE2 150526Z 18010KT 25/18 A2989 RMK A01 T02460184  RH  068%=      5-min Rain = 0
KWE2 150527Z 18010KT 25/18 A2989 RMK A01 T02460184  RH  069%=      5-min Rain = 0
KWE2 150528Z 18010KT 25/18 A2989 RMK A01 T02450184  RH  069%=      5-min Rain = 0
KWE2 150529Z 18009KT 25/18 A2989 RMK A01 T02450184  RH  069%=      5-min Rain = 0
KWE2 150530Z 18009KT 24/18 A2989 RMK A01 T02440184  RH  069%=      5-min Rain = 0
KWE2 150531Z 18009KT 24/18 A2989 RMK A01 T02440184  RH  069%=      5-min Rain = 0
KWE2 150532Z 18008KT 24/18 A2989 RMK A01 T02440184  RH  069%=      5-min Rain = 0
KWE2 150533Z 18010KT 24/18 A2989 RMK A01 T02430183  RH  069%=      5-min Rain = 0
KWE2 150534Z 18010KT 24/18 A2989 RMK A01 T02430183  RH  069%=      5-min Rain = 0
KWE2 150535Z 18009KT 24/18 A2989 RMK A01 T02430184  RH  070%=      5-min Rain = 0
KWE2 150536Z 18010KT 24/18 A2989 RMK A01 T02430183  RH  069%=      5-min Rain = 0
KWE2 150537Z 18010KT 24/18 A2989 RMK A01 T02430184  RH  069%=      5-min Rain = 0
KWE2 150538Z 17010KT 24/18 A2989 RMK A01 T02430184  RH  069%=      5-min Rain = 0
KWE2 150539Z 18010KT 24/18 A2989 RMK A01 T02420183  RH  070%=      5-min Rain = 0
KWE2 150540Z 18010KT 24/18 A2989 RMK A01 T02420183  RH  070%=      5-min Rain = 0
KWE2 150541Z 17009KT 24/18 A2989 RMK A01 T02410183  RH  070%=      5-min Rain = 0
KWE2 150542Z 17009KT 24/18 A2989 RMK A01 T02410183  RH  070%=      5-min Rain = 0
KWE2 150543Z 17010KT 24/18 A2989 RMK A01 T02400183  RH  071%=      5-min Rain = 0
KWE2 150544Z 17010KT 24/18 A2989 RMK A01 T02390183  RH  071%=      5-min Rain = 0
KWE2 150545Z 17010KT 24/18 A2989 RMK A01 T02380183  RH  071%=      5-min Rain = 0
KWE2 150546Z 17010KT 24/18 A2989 RMK A01 T02380183  RH  071%=      5-min Rain = 0
KWE2 150547Z 17010KT 24/18 A2989 RMK A01 T02370183  RH  072%=      5-min Rain = 0
KWE2 150548Z 17010KT 24/18 A2989 RMK A01 T02380184  RH  072%=      5-min Rain = 0
KWE2 150549Z 17010KT 24/18 A2989 RMK A01 T02370183  RH  072%=      5-min Rain = 0
KWE2 150550Z 17011KT 24/18 A2989 RMK A01 T02370183  RH  072%=      5-min Rain = 0
KWE2 150551Z 17010KT 24/18 A2989 RMK A01 T02370183  RH  072%=      5-min Rain = 0
KWE2 150552Z 17010KT 24/18 A2989 RMK A01 T02370183  RH  072%=      5-min Rain = 0
KWE2 150553Z 17010KT 24/18 A2989 RMK A01 T02360183  RH  072%=      5-min Rain = 0
KWE2 150554Z 17010KT 24/18 A2989 RMK A01 T02360183  RH  072%=      5-min Rain = 0
KWE2 150555Z 17010KT 24/18 A2989 RMK A01 T02360183  RH  072%=      5-min Rain = 0
KWE2 150556Z 17009KT 24/18 A2989 RMK A01 T02350183  RH  073%=      5-min Rain = 0
KWE2 150557Z 17009KT 23/18 A2989 RMK A01 T02340183  RH  073%=      5-min Rain = 0
KWE2 150558Z 17009KT 23/18 A2988 RMK A01 T02330183  RH  073%=      5-min Rain = 0
KWE2 150559Z 17010KT 23/18 A2988 RMK A01 T02320182  RH  073%=      5-min Rain = 0
KWE2 150600Z 17010KT 23/18 A2989 RMK A01 T02320183  RH  074%=      5-min Rain = 0
KWE2 150601Z 17010KT 23/18 A2989 RMK A01 T02310182  RH  074%=      5-min Rain = 0
KWE2 150602Z 17010KT 23/18 A2988 RMK A01 T02310182  RH  074%=      5-min Rain = 0
KWE2 150603Z 18010KT 23/18 A2989 RMK A01 T02310183  RH  074%=      5-min Rain = 0
KWE2 150604Z 18010KT 23/18 A2989 RMK A01 T02310182  RH  074%=      5-min Rain = 0
KWE2 150605Z 18010KT 23/18 A2989 RMK A01 T02310182  RH  074%=      5-min Rain = 0
KWE2 150606Z 18010KT 23/18 A2989 RMK A01 T02310182  RH  074%=      5-min Rain = 0
KWE2 150607Z 18010KT 23/18 A2989 RMK A01 T02310183  RH  074%=      5-min Rain = 0
KWE2 150608Z 18010KT 23/18 A2989 RMK A01 T02310182  RH  074%=      5-min Rain = 0
KWE2 150609Z 18010KT 23/18 A2989 RMK A01 T02310183  RH  074%=      5-min Rain = 0
KWE2 150610Z 18010KT 23/18 A2989 RMK A01 T02310182  RH  074%=      5-min Rain = 0
KWE2 150611Z 17011KT 23/18 A2989 RMK A01 T02310182  RH  074%=      5-min Rain = 0
KWE2 150612Z 17011KT 23/18 A2989 RMK A01 T02310182  RH  074%=      5-min Rain = 0
KWE2 150613Z 17011KT 23/18 A2988 RMK A01 T02310182  RH  074%=      5-min Rain = 0
KWE2 150614Z 17012KT 23/18 A2988 RMK A01 T02310182  RH  074%=      5-min Rain = 0
KWE2 150615Z 17011KT 23/18 A2988 RMK A01 T02300182  RH  074%=      5-min Rain = 0
KWE2 150616Z 17012KT 23/18 A2988 RMK A01 T02300182  RH  075%=      5-min Rain = 0
KWE2 150617Z 17011KT 23/18 A2988 RMK A01 T02290182  RH  075%=      5-min Rain = 0
KWE2 150618Z 17011KT 23/18 A2988 RMK A01 T02290183  RH  075%=      5-min Rain = 0
KWE2 150619Z 17012KT 23/18 A2988 RMK A01 T02290182  RH  075%=      5-min Rain = 0
KWE2 150620Z 18012KT 23/18 A2988 RMK A01 T02280182  RH  075%=      5-min Rain = 0
KWE2 150621Z 18011KT 23/18 A2988 RMK A01 T02290183  RH  075%=      5-min Rain = 0
KWE2 150622Z 17010KT 23/18 A2988 RMK A01 T02280182  RH  075%=      5-min Rain = 0
KWE2 150623Z 17012KT 23/18 A2988 RMK A01 T02270182  RH  076%=      5-min Rain = 0
KWE2 150624Z 17012KT 23/18 A2988 RMK A01 T02270182  RH  076%=      5-min Rain = 0
KWE2 150625Z 17012KT 23/18 A2988 RMK A01 T02270182  RH  076%=      5-min Rain = 0
KWE2 150626Z 17011KT 23/18 A2988 RMK A01 T02270182  RH  075%=      5-min Rain = 0
KWE2 150627Z 18012KT 23/18 A2988 RMK A01 T02270182  RH  076%=      5-min Rain = 0
KWE2 150628Z 17011KT 23/18 A2988 RMK A01 T02270182  RH  075%=      5-min Rain = 0
KWE2 150629Z 17011KT 23/18 A2988 RMK A01 T02270181  RH  075%=      5-min Rain = 0
KWE2 150630Z 17012KT 23/18 A2988 RMK A01 T02270181  RH  075%=      5-min Rain = 0
KWE2 150631Z 17013KT 23/18 A2988 RMK A01 T02270182  RH  075%=      5-min Rain = 0
KWE2 150632Z 18012KT 23/18 A2988 RMK A01 T02270181  RH  075%=      5-min Rain = 0
KWE2 150633Z 18011KT 23/18 A2988 RMK A01 T02280181  RH  075%=      5-min Rain = 0
KWE2 150634Z 18011KT 23/18 A2988 RMK A01 T02280181  RH  075%=      5-min Rain = 0
KWE2 150635Z 18012KT 23/18 A2988 RMK A01 T02280181  RH  075%=      5-min Rain = 0
KWE2 150636Z 18011KT 23/18 A2988 RMK A01 T02280181  RH  075%=      5-min Rain = 0
KWE2 150637Z 18012KT 23/18 A2988 RMK A01 T02280181  RH  075%=      5-min Rain = 0
KWE2 150638Z 18012KT 23/18 A2988 RMK A01 T02280181  RH  075%=      5-min Rain = 0
KWE2 150639Z 18012KT 23/18 A2988 RMK A01 T02280181  RH  075%=      5-min Rain = 0
KWE2 150640Z 18012KT 23/18 A2988 RMK A01 T02280180  RH  075%=      5-min Rain = 0
KWE2 150641Z 18011KT 23/18 A2988 RMK A01 T02280180  RH  075%=      5-min Rain = 0
KWE2 150642Z 18013KT 23/18 A2988 RMK A01 T02280180  RH  075%=      5-min Rain = 0
KWE2 150643Z 18013KT 23/18 A2988 RMK A01 T02280180  RH  075%=      5-min Rain = 0
KWE2 150644Z 18012KT 23/18 A2988 RMK A01 T02270180  RH  075%=      5-min Rain = 0
KWE2 150645Z 18013KT 23/18 A2988 RMK A01 T02270180  RH  075%=      5-min Rain = 0
KWE2 150646Z 18012KT 23/18 A2988 RMK A01 T02270180  RH  075%=      5-min Rain = 0
KWE2 150647Z 18012KT 23/18 A2988 RMK A01 T02270180  RH  075%=      5-min Rain = 0
KWE2 150648Z 18012KT 23/18 A2987 RMK A01 T02260180  RH  075%=      5-min Rain = 0
KWE2 150649Z 18012KT 23/18 A2987 RMK A01 T02260180  RH  075%=      5-min Rain = 0
KWE2 150650Z 18011KT 23/18 A2987 RMK A01 T02260180  RH  075%=      5-min Rain = 0
KWE2 150651Z 18012KT 23/18 A2987 RMK A01 T02260179  RH  075%=      5-min Rain = 0
KWE2 150652Z 18012KT 23/18 A2987 RMK A01 T02260179  RH  075%=      5-min Rain = 0
KWE2 150653Z 18011KT 23/18 A2987 RMK A01 T02250179  RH  075%=      5-min Rain = 0
KWE2 150654Z 18012KT 23/18 A2987 RMK A01 T02250179  RH  075%=      5-min Rain = 0
KWE2 150655Z 18011KT 23/18 A2987 RMK A01 T02250179  RH  075%=      5-min Rain = 0
KWE2 150656Z 18011KT 22/18 A2987 RMK A01 T02240178  RH  075%=      5-min Rain = 0
KWE2 150657Z 18011KT 22/18 A2987 RMK A01 T02240178  RH  075%=      5-min Rain = 0
KWE2 150658Z 18011KT 22/18 A2987 RMK A01 T02240178  RH  075%=      5-min Rain = 0
KWE2 150659Z 18011KT 22/18 A2987 RMK A01 T02240178  RH  075%=      5-min Rain = 0
KWE2 150700Z 18011KT 22/18 A2987 RMK A01 T02240178  RH  075%=      5-min Rain = 0
KWE2 150701Z 19011KT 22/18 A2987 RMK A01 T02240177  RH  075%=      5-min Rain = 0
KWE2 150702Z 19011KT 22/18 A2987 RMK A01 T02240177  RH  075%=      5-min Rain = 0
KWE2 150703Z 19011KT 22/18 A2987 RMK A01 T02240177  RH  075%=      5-min Rain = 0
KWE2 150704Z 19011KT 22/18 A2987 RMK A01 T02230177  RH  075%=      5-min Rain = 0
KWE2 150705Z 18012KT 22/18 A2987 RMK A01 T02240177  RH  075%=      5-min Rain = 0
KWE2 150706Z 18011KT 22/18 A2987 RMK A01 T02230177  RH  075%=      5-min Rain = 0
KWE2 150707Z 18011KT 22/18 A2987 RMK A01 T02230176  RH  075%=      5-min Rain = 0
KWE2 150708Z 18011KT 22/18 A2987 RMK A01 T02230176  RH  075%=      5-min Rain = 0
KWE2 150709Z 18012KT 22/18 A2987 RMK A01 T02230176  RH  075%=      5-min Rain = 0
KWE2 150710Z 18011KT 22/18 A2987 RMK A01 T02220176  RH  075%=      5-min Rain = 0
KWE2 150711Z 18012KT 22/18 A2987 RMK A01 T02220175  RH  075%=      5-min Rain = 0
KWE2 150712Z 18012KT 22/18 A2986 RMK A01 T02220175  RH  075%=      5-min Rain = 0
KWE2 150713Z 18011KT 22/18 A2986 RMK A01 T02220175  RH  074%=      5-min Rain = 0
KWE2 150714Z 18012KT 22/18 A2986 RMK A01 T02230175  RH  074%=      5-min Rain = 0
KWE2 150715Z 18012KT 22/18 A2986 RMK A01 T02220175  RH  074%=      5-min Rain = 0
KWE2 150716Z 18011KT 22/18 A2987 RMK A01 T02220175  RH  075%=      5-min Rain = 0
KWE2 150717Z 18011KT 22/17 A2986 RMK A01 T02210174  RH  075%=      5-min Rain = 0
KWE2 150718Z 18011KT 22/17 A2986 RMK A01 T02200174  RH  075%=      5-min Rain = 0
KWE2 150719Z 18010KT 22/17 A2986 RMK A01 T02200174  RH  075%=      5-min Rain = 0
KWE2 150720Z 18010KT 22/17 A2986 RMK A01 T02190174  RH  076%=      5-min Rain = 0
KWE2 150721Z 18010KT 22/17 A2986 RMK A01 T02190174  RH  076%=      5-min Rain = 0
KWE2 150722Z 18010KT 22/17 A2986 RMK A01 T02180174  RH  076%=      5-min Rain = 0
KWE2 150723Z 18010KT 22/17 A2986 RMK A01 T02180174  RH  076%=      5-min Rain = 0
KWE2 150724Z 18010KT 22/17 A2986 RMK A01 T02180174  RH  076%=      5-min Rain = 0
KWE2 150725Z 18010KT 22/17 A2986 RMK A01 T02170173  RH  076%=      5-min Rain = 0
KWE2 150726Z 18011KT 22/17 A2986 RMK A01 T02170173  RH  076%=      5-min Rain = 0
KWE2 150727Z 18011KT 22/17 A2986 RMK A01 T02180173  RH  076%=      5-min Rain = 0
KWE2 150728Z 18010KT 22/17 A2986 RMK A01 T02170173  RH  076%=      5-min Rain = 0
KWE2 150729Z 18011KT 22/17 A2986 RMK A01 T02170173  RH  076%=      5-min Rain = 0
KWE2 150730Z 18010KT 22/17 A2986 RMK A01 T02170173  RH  076%=      5-min Rain = 0
KWE2 150731Z 18010KT 22/17 A2986 RMK A01 T02170172  RH  076%=      5-min Rain = 0
KWE2 150732Z 18009KT 22/17 A2986 RMK A01 T02160172  RH  076%=      5-min Rain = 0
KWE2 150733Z 18009KT 22/17 A2986 RMK A01 T02160172  RH  076%=      5-min Rain = 0
KWE2 150734Z 18009KT 22/17 A2986 RMK A01 T02160172  RH  076%=      5-min Rain = 0
KWE2 150735Z 18009KT 22/17 A2986 RMK A01 T02150172  RH  076%=      5-min Rain = 0
KWE2 150736Z 18009KT 22/17 A2986 RMK A01 T02150171  RH  076%=      5-min Rain = 0
KWE2 150737Z 18009KT 22/17 A2986 RMK A01 T02150171  RH  076%=      5-min Rain = 0
KWE2 150738Z 18009KT 21/17 A2986 RMK A01 T02140171  RH  076%=      5-min Rain = 0
KWE2 150739Z 18008KT 21/17 A2986 RMK A01 T02140171  RH  077%=      5-min Rain = 0
KWE2 150740Z 18008KT 21/17 A2986 RMK A01 T02130171  RH  077%=      5-min Rain = 0
KWE2 150741Z 18009KT 21/17 A2986 RMK A01 T02130171  RH  077%=      5-min Rain = 0
KWE2 150742Z 18009KT 21/17 A2986 RMK A01 T02120170  RH  077%=      5-min Rain = 0
KWE2 150743Z 18008KT 21/17 A2986 RMK A01 T02120171  RH  077%=      5-min Rain = 0
KWE2 150744Z 18008KT 21/17 A2986 RMK A01 T02120170  RH  077%=      5-min Rain = 0
KWE2 150745Z 18008KT 21/17 A2986 RMK A01 T02120170  RH  077%=      5-min Rain = 0
KWE2 150746Z 18008KT 21/17 A2986 RMK A01 T02110170  RH  077%=      5-min Rain = 0
KWE2 150747Z 19008KT 21/17 A2986 RMK A01 T02120170  RH  077%=      5-min Rain = 0
KWE2 150748Z 19009KT 21/17 A2987 RMK A01 T02110170  RH  077%=      5-min Rain = 0
KWE2 150749Z 18008KT 21/17 A2987 RMK A01 T02110170  RH  077%=      5-min Rain = 0
KWE2 150750Z 18009KT 21/17 A2987 RMK A01 T02110170  RH  077%=      5-min Rain = 0
KWE2 150751Z 18009KT 21/17 A2987 RMK A01 T02110169  RH  077%=      5-min Rain = 0
KWE2 150752Z 18008KT 21/17 A2987 RMK A01 T02100169  RH  077%=      5-min Rain = 0
KWE2 150753Z 18008KT 21/17 A2986 RMK A01 T02100169  RH  077%=      5-min Rain = 0
KWE2 150754Z 18008KT 21/17 A2986 RMK A01 T02100169  RH  077%=      5-min Rain = 0
KWE2 150755Z 18008KT 21/17 A2986 RMK A01 T02100169  RH  078%=      5-min Rain = 0
KWE2 150756Z 18008KT 21/17 A2986 RMK A01 T02090169  RH  078%=      5-min Rain = 0
KWE2 150757Z 18008KT 21/17 A2986 RMK A01 T02090168  RH  078%=      5-min Rain = 0
KWE2 150758Z 18008KT 21/17 A2986 RMK A01 T02080168  RH  078%=      5-min Rain = 0
KWE2 150759Z 18008KT 21/17 A2986 RMK A01 T02080168  RH  078%=      5-min Rain = 0
KWE2 150800Z 18008KT 21/17 A2986 RMK A01 T02080168  RH  078%=      5-min Rain = 0
KWE2 150801Z 18008KT 21/17 A2986 RMK A01 T02070168  RH  078%=      5-min Rain = 0
KWE2 150802Z 18008KT 21/17 A2986 RMK A01 T02070168  RH  078%=      5-min Rain = 0
KWE2 150803Z 18008KT 21/17 A2986 RMK A01 T02070167  RH  078%=      5-min Rain = 0
KWE2 150804Z 18008KT 21/17 A2986 RMK A01 T02060168  RH  078%=      5-min Rain = 0
KWE2 150805Z 18008KT 21/17 A2986 RMK A01 T02060167  RH  078%=      5-min Rain = 0
KWE2 150806Z 18008KT 21/17 A2986 RMK A01 T02060167  RH  079%=      5-min Rain = 0
KWE2 150807Z 19008KT 21/17 A2986 RMK A01 T02060167  RH  079%=      5-min Rain = 0
KWE2 150808Z 18008KT 21/17 A2986 RMK A01 T02050167  RH  079%=      5-min Rain = 0
KWE2 150809Z 19009KT 21/17 A2986 RMK A01 T02050167  RH  078%=      5-min Rain = 0
KWE2 150810Z 19008KT 21/17 A2986 RMK A01 T02050166  RH  078%=      5-min Rain = 0
KWE2 150811Z 19009KT 21/17 A2986 RMK A01 T02050166  RH  078%=      5-min Rain = 0
KWE2 150812Z 19009KT 21/17 A2987 RMK A01 T02060166  RH  078%=      5-min Rain = 0
KWE2 150813Z 19009KT 21/17 A2987 RMK A01 T02060166  RH  078%=      5-min Rain = 0
KWE2 150814Z 19008KT 21/17 A2987 RMK A01 T02060166  RH  078%=      5-min Rain = 0
KWE2 150815Z 18009KT 21/17 A2986 RMK A01 T02060166  RH  078%=      5-min Rain = 0
KWE2 150816Z 18009KT 21/17 A2986 RMK A01 T02060166  RH  078%=      5-min Rain = 0
KWE2 150817Z 18008KT 21/17 A2986 RMK A01 T02060166  RH  078%=      5-min Rain = 0
KWE2 150818Z 18008KT 21/17 A2986 RMK A01 T02050165  RH  078%=      5-min Rain = 0
KWE2 150819Z 19008KT 21/17 A2987 RMK A01 T02050165  RH  078%=      5-min Rain = 0
KWE2 150820Z 19008KT 21/17 A2986 RMK A01 T02050165  RH  078%=      5-min Rain = 0
KWE2 150821Z 19008KT 21/17 A2986 RMK A01 T02050165  RH  078%=      5-min Rain = 0
KWE2 150822Z 18008KT 21/17 A2986 RMK A01 T02050165  RH  078%=      5-min Rain = 0
KWE2 150823Z 18008KT 21/17 A2986 RMK A01 T02050165  RH  078%=      5-min Rain = 0
KWE2 150824Z 18008KT 20/16 A2986 RMK A01 T02040164  RH  078%=      5-min Rain = 0
KWE2 150825Z 18008KT 21/16 A2986 RMK A01 T02050164  RH  078%=      5-min Rain = 0
KWE2 150826Z 17008KT 21/17 A2986 RMK A01 T02050165  RH  078%=      5-min Rain = 0
KWE2 150827Z 18008KT 20/16 A2986 RMK A01 T02040164  RH  078%=      5-min Rain = 0
KWE2 150828Z 17008KT 20/16 A2986 RMK A01 T02030164  RH  078%=      5-min Rain = 0
KWE2 150829Z 17007KT 20/16 A2986 RMK A01 T02030164  RH  078%=      5-min Rain = 0
KWE2 150830Z 17007KT 20/16 A2986 RMK A01 T02020164  RH  079%=      5-min Rain = 0
KWE2 150831Z 17007KT 20/16 A2986 RMK A01 T02020164  RH  079%=      5-min Rain = 0
KWE2 150832Z 18007KT 20/16 A2986 RMK A01 T02010164  RH  079%=      5-min Rain = 0
KWE2 150833Z 18006KT 20/16 A2986 RMK A01 T02010164  RH  080%=      5-min Rain = 0
KWE2 150834Z 18006KT 20/16 A2986 RMK A01 T02000164  RH  080%=      5-min Rain = 0
KWE2 150835Z 19006KT 20/16 A2986 RMK A01 T02000164  RH  080%=      5-min Rain = 0
KWE2 150836Z 19006KT 20/16 A2986 RMK A01 T01990164  RH  080%=      5-min Rain = 0
KWE2 150837Z 19006KT 20/16 A2986 RMK A01 T01990164  RH  080%=      5-min Rain = 0
KWE2 150838Z 19006KT 20/16 A2986 RMK A01 T01990163  RH  080%=      5-min Rain = 0
KWE2 150839Z 19007KT 20/16 A2986 RMK A01 T01990163  RH  080%=      5-min Rain = 0
KWE2 150840Z 19006KT 20/16 A2986 RMK A01 T01990163  RH  080%=      5-min Rain = 0
KWE2 150841Z 18007KT 20/16 A2986 RMK A01 T01980163  RH  080%=      5-min Rain = 0
KWE2 150842Z 18007KT 20/16 A2986 RMK A01 T01980163  RH  080%=      5-min Rain = 0
KWE2 150843Z 18006KT 20/16 A2986 RMK A01 T01980163  RH  080%=      5-min Rain = 0
KWE2 150844Z 18006KT 20/16 A2986 RMK A01 T01980163  RH  080%=      5-min Rain = 0
KWE2 150845Z 18006KT 20/16 A2986 RMK A01 T01980162  RH  080%=      5-min Rain = 0
KWE2 150846Z 18006KT 20/16 A2986 RMK A01 T01970162  RH  080%=      5-min Rain = 0
KWE2 150847Z 18006KT 20/16 A2986 RMK A01 T01970162  RH  080%=      5-min Rain = 0
KWE2 150848Z 18006KT 20/16 A2986 RMK A01 T01960162  RH  081%=      5-min Rain = 0
KWE2 150849Z 18006KT 20/16 A2986 RMK A01 T01960162  RH  081%=      5-min Rain = 0
KWE2 150850Z 18006KT 20/16 A2986 RMK A01 T01950162  RH  081%=      5-min Rain = 0
KWE2 150851Z 18006KT 19/16 A2986 RMK A01 T01940162  RH  081%=      5-min Rain = 0
KWE2 150852Z 18005KT 19/16 A2986 RMK A01 T01940162  RH  082%=      5-min Rain = 0
KWE2 150853Z 18005KT 19/16 A2986 RMK A01 T01930162  RH  082%=      5-min Rain = 0
KWE2 150854Z 18005KT 19/16 A2986 RMK A01 T01930162  RH  082%=      5-min Rain = 0
KWE2 150855Z 18006KT 19/16 A2986 RMK A01 T01920162  RH  082%=      5-min Rain = 0
KWE2 150856Z 18005KT 19/16 A2986 RMK A01 T01920162  RH  083%=      5-min Rain = 0
KWE2 150857Z 18005KT 19/16 A2986 RMK A01 T01910161  RH  083%=      5-min Rain = 0
KWE2 150858Z 18005KT 19/16 A2986 RMK A01 T01910161  RH  083%=      5-min Rain = 0
KWE2 150859Z 18006KT 19/16 A2986 RMK A01 T01900161  RH  083%=      5-min Rain = 0
KWE2 150900Z 18006KT 19/16 A2986 RMK A01 T01900161  RH  083%=      5-min Rain = 0
KWE2 150901Z 19006KT 19/16 A2986 RMK A01 T01890160  RH  083%=      5-min Rain = 0
KWE2 150902Z 19006KT 19/16 A2986 RMK A01 T01890160  RH  084%=      5-min Rain = 0
KWE2 150903Z 19005KT 19/16 A2986 RMK A01 T01880160  RH  084%=      5-min Rain = 0
KWE2 150904Z 19005KT 19/16 A2986 RMK A01 T01880160  RH  084%=      5-min Rain = 0
KWE2 150905Z 19005KT 19/16 A2986 RMK A01 T01880160  RH  084%=      5-min Rain = 0
KWE2 150906Z 20005KT 19/16 A2986 RMK A01 T01880160  RH  084%=      5-min Rain = 0
KWE2 150907Z 19005KT 19/16 A2986 RMK A01 T01870160  RH  084%=      5-min Rain = 0
KWE2 150908Z 19006KT 19/16 A2986 RMK A01 T01870159  RH  084%=      5-min Rain = 0
KWE2 150909Z 20005KT 19/16 A2986 RMK A01 T01870159  RH  084%=      5-min Rain = 0
KWE2 150910Z 20006KT 19/16 A2986 RMK A01 T01870159  RH  084%=      5-min Rain = 0
KWE2 150911Z 20006KT 19/16 A2986 RMK A01 T01870159  RH  083%=      5-min Rain = 0
KWE2 150912Z 20007KT 19/16 A2986 RMK A01 T01870159  RH  084%=      5-min Rain = 0
KWE2 150913Z 20007KT 19/16 A2986 RMK A01 T01880159  RH  083%=      5-min Rain = 0
KWE2 150914Z 20006KT 19/16 A2986 RMK A01 T01880159  RH  083%=      5-min Rain = 0
KWE2 150915Z 20007KT 19/16 A2986 RMK A01 T01880159  RH  083%=      5-min Rain = 0
KWE2 150916Z 20007KT 19/16 A2986 RMK A01 T01880159  RH  083%=      5-min Rain = 0
KWE2 150917Z 20007KT 19/16 A2986 RMK A01 T01880159  RH  083%=      5-min Rain = 0
KWE2 150918Z 20006KT 19/16 A2986 RMK A01 T01880159  RH  083%=      5-min Rain = 0
KWE2 150919Z 20007KT 19/16 A2986 RMK A01 T01880159  RH  083%=      5-min Rain = 0
KWE2 150920Z 20006KT 19/16 A2986 RMK A01 T01880159  RH  083%=      5-min Rain = 0
KWE2 150921Z 20007KT 19/16 A2986 RMK A01 T01880159  RH  083%=      5-min Rain = 0
KWE2 150922Z 20007KT 19/16 A2986 RMK A01 T01880159  RH  083%=      5-min Rain = 0
KWE2 150923Z 20007KT 19/16 A2986 RMK A01 T01880159  RH  083%=      5-min Rain = 0
KWE2 150924Z 20007KT 19/16 A2986 RMK A01 T01880159  RH  083%=      5-min Rain = 0
KWE2 150925Z 20007KT 19/16 A2986 RMK A01 T01880159  RH  083%=      5-min Rain = 0
KWE2 150926Z 20008KT 19/16 A2986 RMK A01 T01880159  RH  083%=      5-min Rain = 0
KWE2 150927Z 19008KT 19/16 A2986 RMK A01 T01880159  RH  083%=      5-min Rain = 0
KWE2 150928Z 19008KT 19/16 A2986 RMK A01 T01880159  RH  083%=      5-min Rain = 0
KWE2 150929Z 19008KT 19/16 A2986 RMK A01 T01880159  RH  083%=      5-min Rain = 0
KWE2 150930Z 20008KT 19/16 A2986 RMK A01 T01890159  RH  083%=      5-min Rain = 0
KWE2 150931Z 20007KT 19/16 A2986 RMK A01 T01890158  RH  083%=      5-min Rain = 0
KWE2 150932Z 20008KT 19/16 A2986 RMK A01 T01890159  RH  083%=      5-min Rain = 0
KWE2 150933Z 20008KT 19/16 A2986 RMK A01 T01890159  RH  083%=      5-min Rain = 0
KWE2 150934Z 20008KT 19/16 A2986 RMK A01 T01890158  RH  082%=      5-min Rain = 0
KWE2 150935Z 20008KT 19/16 A2986 RMK A01 T01900158  RH  082%=      5-min Rain = 0
KWE2 150936Z 20008KT 19/16 A2986 RMK A01 T01900158  RH  082%=      5-min Rain = 0
KWE2 150937Z 20008KT 19/16 A2986 RMK A01 T01900158  RH  081%=      5-min Rain = 0
KWE2 150938Z 20008KT 19/16 A2986 RMK A01 T01910158  RH  081%=      5-min Rain = 0
KWE2 150939Z 20008KT 19/16 A2986 RMK A01 T01910158  RH  081%=      5-min Rain = 0
KWE2 150940Z 20008KT 19/16 A2986 RMK A01 T01910158  RH  081%=      5-min Rain = 0
KWE2 150941Z 20007KT 19/16 A2986 RMK A01 T01900158  RH  081%=      5-min Rain = 0
KWE2 150942Z 20007KT 19/16 A2986 RMK A01 T01900158  RH  081%=      5-min Rain = 0
KWE2 150943Z 20008KT 19/16 A2986 RMK A01 T01900158  RH  081%=      5-min Rain = 0
KWE2 150944Z 20007KT 19/16 A2986 RMK A01 T01910158  RH  081%=      5-min Rain = 0
KWE2 150945Z 20008KT 19/16 A2986 RMK A01 T01900158  RH  081%=      5-min Rain = 0
KWE2 150946Z 20007KT 19/16 A2986 RMK A01 T01900158  RH  081%=      5-min Rain = 0
KWE2 150947Z 21007KT 19/16 A2986 RMK A01 T01900158  RH  081%=      5-min Rain = 0
KWE2 150948Z 21007KT 19/16 A2986 RMK A01 T01900157  RH  081%=      5-min Rain = 0
KWE2 150949Z 21007KT 19/16 A2986 RMK A01 T01890158  RH  082%=      5-min Rain = 0
KWE2 150950Z 21007KT 19/16 A2986 RMK A01 T01890158  RH  082%=      5-min Rain = 0
KWE2 150951Z 21007KT 19/16 A2986 RMK A01 T01890157  RH  082%=      5-min Rain = 0
KWE2 150952Z 20007KT 19/16 A2986 RMK A01 T01890157  RH  082%=      5-min Rain = 0
KWE2 150953Z 20008KT 19/16 A2986 RMK A01 T01880157  RH  082%=      5-min Rain = 0
KWE2 150954Z 20008KT 19/16 A2986 RMK A01 T01880158  RH  082%=      5-min Rain = 0
KWE2 150955Z 20008KT 19/16 A2986 RMK A01 T01880157  RH  083%=      5-min Rain = 0
KWE2 150956Z 21008KT 19/16 A2986 RMK A01 T01870157  RH  083%=      5-min Rain = 0
KWE2 150957Z 21008KT 19/16 A2986 RMK A01 T01870157  RH  083%=      5-min Rain = 0
KWE2 150958Z 21008KT 19/16 A2986 RMK A01 T01870157  RH  083%=      5-min Rain = 0
KWE2 150959Z 22008KT 19/16 A2986 RMK A01 T01860157  RH  083%=      5-min Rain = 0
KWE2 151000Z 22008KT 19/16 A2986 RMK A01 T01860157  RH  083%=      5-min Rain = 0
KWE2 151001Z 21008KT 19/16 A2986 RMK A01 T01860157  RH  083%=      5-min Rain = 0
KWE2 151002Z 21008KT 19/16 A2986 RMK A01 T01850156  RH  083%=      5-min Rain = 0
KWE2 151003Z 20008KT 18/16 A2986 RMK A01 T01840156  RH  084%=      5-min Rain = 0
KWE2 151004Z 20008KT 18/16 A2986 RMK A01 T01840156  RH  084%=      5-min Rain = 0
KWE2 151005Z 20008KT 18/16 A2986 RMK A01 T01840156  RH  084%=      5-min Rain = 0
KWE2 151006Z 21008KT 18/16 A2986 RMK A01 T01830155  RH  084%=      5-min Rain = 0
KWE2 151007Z 21007KT 18/16 A2986 RMK A01 T01830156  RH  084%=      5-min Rain = 0
KWE2 151008Z 22007KT 18/16 A2986 RMK A01 T01830156  RH  084%=      5-min Rain = 0
KWE2 151009Z 21007KT 18/16 A2985 RMK A01 T01830156  RH  084%=      5-min Rain = 0
KWE2 151010Z 21007KT 18/16 A2985 RMK A01 T01830156  RH  084%=      5-min Rain = 0
KWE2 151011Z 21007KT 18/16 A2985 RMK A01 T01830156  RH  084%=      5-min Rain = 0
KWE2 151012Z 21007KT 18/16 A2985 RMK A01 T01830156  RH  084%=      5-min Rain = 0
KWE2 151013Z 21007KT 18/16 A2985 RMK A01 T01830155  RH  084%=      5-min Rain = 0
KWE2 151014Z 22007KT 18/16 A2986 RMK A01 T01830155  RH  084%=      5-min Rain = 0
KWE2 151015Z 22008KT 18/16 A2986 RMK A01 T01830156  RH  084%=      5-min Rain = 0
KWE2 151016Z 22008KT 18/16 A2986 RMK A01 T01820155  RH  084%=      5-min Rain = 0
KWE2 151017Z 22008KT 18/16 A2986 RMK A01 T01830155  RH  084%=      5-min Rain = 0
KWE2 151018Z 22008KT 18/16 A2986 RMK A01 T01830155  RH  084%=      5-min Rain = 0
KWE2 151019Z 23008KT 18/16 A2986 RMK A01 T01840155  RH  084%=      5-min Rain = 0
KWE2 151020Z 23008KT 18/16 A2986 RMK A01 T01830155  RH  084%=      5-min Rain = 0
KWE2 151021Z 22008KT 18/16 A2986 RMK A01 T01830155  RH  083%=      5-min Rain = 0
KWE2 151022Z 22007KT 18/16 A2986 RMK A01 T01840156  RH  084%=      5-min Rain = 0
KWE2 151023Z 22007KT 18/16 A2986 RMK A01 T01830156  RH  084%=      5-min Rain = 0
KWE2 151024Z 22007KT 18/16 A2986 RMK A01 T01830156  RH  084%=      5-min Rain = 0
KWE2 151025Z 22007KT 18/16 A2986 RMK A01 T01830156  RH  084%=      5-min Rain = 0
KWE2 151026Z 22008KT 18/16 A2986 RMK A01 T01820156  RH  085%=      5-min Rain = 0
KWE2 151027Z 22008KT 18/16 A2986 RMK A01 T01830156  RH  085%=      5-min Rain = 0
KWE2 151028Z 22007KT 18/16 A2986 RMK A01 T01830157  RH  085%=      5-min Rain = 0
KWE2 151029Z 22007KT 18/16 A2986 RMK A01 T01830156  RH  085%=      5-min Rain = 0
KWE2 151030Z 21007KT 18/16 A2986 RMK A01 T01830156  RH  085%=      5-min Rain = 0
KWE2 151031Z 21007KT 18/16 A2986 RMK A01 T01830156  RH  085%=      5-min Rain = 0
KWE2 151032Z 20007KT 18/16 A2985 RMK A01 T01820156  RH  085%=      5-min Rain = 0
KWE2 151033Z 20007KT 18/16 A2985 RMK A01 T01830157  RH  085%=      5-min Rain = 0
KWE2 151034Z 20007KT 18/16 A2985 RMK A01 T01820156  RH  085%=      5-min Rain = 0
KWE2 151035Z 20007KT 18/16 A2985 RMK A01 T01820156  RH  085%=      5-min Rain = 0
KWE2 151036Z 20007KT 18/16 A2985 RMK A01 T01810156  RH  085%=      5-min Rain = 0
KWE2 151037Z 21006KT 18/16 A2985 RMK A01 T01810156  RH  085%=      5-min Rain = 0
KWE2 151038Z 20006KT 18/16 A2985 RMK A01 T01810156  RH  085%=      5-min Rain = 0
KWE2 151039Z 21006KT 18/16 A2985 RMK A01 T01810156  RH  085%=      5-min Rain = 0
KWE2 151040Z 21006KT 18/16 A2985 RMK A01 T01810156  RH  085%=      5-min Rain = 0
KWE2 151041Z 21007KT 18/16 A2985 RMK A01 T01810156  RH  085%=      5-min Rain = 0
KWE2 151042Z 21007KT 18/16 A2985 RMK A01 T01810156  RH  085%=      5-min Rain = 0
KWE2 151043Z 21007KT 18/16 A2985 RMK A01 T01810156  RH  085%=      5-min Rain = 0
KWE2 151044Z 21007KT 18/16 A2985 RMK A01 T01810156  RH  085%=      5-min Rain = 0
KWE2 151045Z 21007KT 18/16 A2985 RMK A01 T01810156  RH  085%=      5-min Rain = 0
KWE2 151046Z 21007KT 18/16 A2985 RMK A01 T01810156  RH  085%=      5-min Rain = 0
KWE2 151047Z 20007KT 18/16 A2985 RMK A01 T01800156  RH  085%=      5-min Rain = 0
KWE2 151048Z 20007KT 18/16 A2985 RMK A01 T01800156  RH  086%=      5-min Rain = 0
KWE2 151049Z 20007KT 18/16 A2985 RMK A01 T01800156  RH  086%=      5-min Rain = 0
KWE2 151050Z 20007KT 18/16 A2985 RMK A01 T01800156  RH  086%=      5-min Rain = 0
KWE2 151051Z 20007KT 18/16 A2985 RMK A01 T01810156  RH  086%=      5-min Rain = 0
KWE2 151052Z 19007KT 18/16 A2985 RMK A01 T01800156  RH  086%=      5-min Rain = 0
KWE2 151053Z 19008KT 18/16 A2985 RMK A01 T01800156  RH  085%=      5-min Rain = 0
KWE2 151054Z 19008KT 18/16 A2985 RMK A01 T01800156  RH  085%=      5-min Rain = 0
KWE2 151055Z 19008KT 18/16 A2985 RMK A01 T01800155  RH  085%=      5-min Rain = 0
KWE2 151056Z 19009KT 18/16 A2985 RMK A01 T01800156  RH  085%=      5-min Rain = 0
KWE2 151057Z 19009KT 18/16 A2985 RMK A01 T01810156  RH  085%=      5-min Rain = 0
KWE2 151058Z 19009KT 18/16 A2985 RMK A01 T01810156  RH  085%=      5-min Rain = 0
KWE2 151059Z 19009KT 18/16 A2985 RMK A01 T01820156  RH  085%=      5-min Rain = 0
KWE2 151100Z 20009KT 18/16 A2985 RMK A01 T01830156  RH  084%=      5-min Rain = 0
KWE2 151101Z 19009KT 18/16 A2985 RMK A01 T01840155  RH  084%=      5-min Rain = 0
KWE2 151102Z 20009KT 18/16 A2985 RMK A01 T01840155  RH  083%=      5-min Rain = 0
KWE2 151103Z 19009KT 18/16 A2985 RMK A01 T01840155  RH  083%=      5-min Rain = 0
KWE2 151104Z 20009KT 18/16 A2985 RMK A01 T01840155  RH  083%=      5-min Rain = 0
KWE2 151105Z 19010KT 19/16 A2985 RMK A01 T01850155  RH  083%=      5-min Rain = 0
KWE2 151106Z 19009KT 19/16 A2985 RMK A01 T01850155  RH  083%=      5-min Rain = 0
KWE2 151107Z 19009KT 19/16 A2985 RMK A01 T01850155  RH  082%=      5-min Rain = 0
KWE2 151108Z 19009KT 19/16 A2985 RMK A01 T01850155  RH  082%=      5-min Rain = 0
KWE2 151109Z 19009KT 19/16 A2985 RMK A01 T01860155  RH  082%=      5-min Rain = 0
KWE2 151110Z 19009KT 19/15 A2985 RMK A01 T01860154  RH  082%=      5-min Rain = 0
KWE2 151111Z 19009KT 19/16 A2985 RMK A01 T01860155  RH  082%=      5-min Rain = 0
KWE2 151112Z 19009KT 19/16 A2985 RMK A01 T01860155  RH  082%=      5-min Rain = 0
KWE2 151113Z 19010KT 19/16 A2985 RMK A01 T01860155  RH  082%=      5-min Rain = 0
KWE2 151114Z 19009KT 19/16 A2985 RMK A01 T01860155  RH  082%=      5-min Rain = 0
KWE2 151115Z 19010KT 19/16 A2985 RMK A01 T01860156  RH  083%=      5-min Rain = 0
KWE2 151116Z 19009KT 19/16 A2985 RMK A01 T01850156  RH  083%=      5-min Rain = 0
KWE2 151117Z 19009KT 19/16 A2985 RMK A01 T01850155  RH  083%=      5-min Rain = 0
KWE2 151118Z 19010KT 19/16 A2985 RMK A01 T01850156  RH  083%=      5-min Rain = 0
KWE2 151119Z 19010KT 19/16 A2985 RMK A01 T01850156  RH  083%=      5-min Rain = 0
KWE2 151120Z 19010KT 18/16 A2985 RMK A01 T01840155  RH  083%=      5-min Rain = 0
KWE2 151121Z 19009KT 18/16 A2985 RMK A01 T01840155  RH  083%=      5-min Rain = 0
KWE2 151122Z 19009KT 18/16 A2985 RMK A01 T01840156  RH  083%=      5-min Rain = 0
KWE2 151123Z 19009KT 18/16 A2985 RMK A01 T01840155  RH  083%=      5-min Rain = 0
KWE2 151124Z 19009KT 18/16 A2985 RMK A01 T01840155  RH  083%=      5-min Rain = 0
KWE2 151125Z 20009KT 18/16 A2985 RMK A01 T01830155  RH  084%=      5-min Rain = 0
KWE2 151126Z 20009KT 18/16 A2985 RMK A01 T01830155  RH  084%=      5-min Rain = 0
KWE2 151127Z 20008KT 18/16 A2985 RMK A01 T01820155  RH  084%=      5-min Rain = 0
KWE2 151128Z 20008KT 18/15 A2985 RMK A01 T01820154  RH  084%=      5-min Rain = 0
KWE2 151129Z 19008KT 18/15 A2985 RMK A01 T01820154  RH  084%=      5-min Rain = 0
KWE2 151130Z 19009KT 18/15 A2985 RMK A01 T01820154  RH  084%=      5-min Rain = 0
KWE2 151131Z 20008KT 18/15 A2985 RMK A01 T01820154  RH  084%=      5-min Rain = 0
KWE2 151132Z 20008KT 18/15 A2985 RMK A01 T01820154  RH  084%=      5-min Rain = 0
KWE2 151133Z 20008KT 18/15 A2985 RMK A01 T01810154  RH  084%=      5-min Rain = 0
KWE2 151134Z 20008KT 18/15 A2985 RMK A01 T01810154  RH  084%=      5-min Rain = 0
KWE2 151135Z 19008KT 18/15 A2985 RMK A01 T01800154  RH  084%=      5-min Rain = 0
KWE2 151136Z 20008KT 18/15 A2985 RMK A01 T01800153  RH  085%=      5-min Rain = 0
KWE2 151137Z 20008KT 18/15 A2985 RMK A01 T01790153  RH  085%=      5-min Rain = 0
KWE2 151138Z 20008KT 18/15 A2985 RMK A01 T01790153  RH  085%=      5-min Rain = 0
KWE2 151139Z 20008KT 18/15 A2985 RMK A01 T01790153  RH  085%=      5-min Rain = 0
KWE2 151140Z 20008KT 18/15 A2985 RMK A01 T01780153  RH  085%=      5-min Rain = 0
KWE2 151141Z 21008KT 18/15 A2985 RMK A01 T01790154  RH  085%=      5-min Rain = 0
KWE2 151142Z 21008KT 18/15 A2985 RMK A01 T01780153  RH  085%=      5-min Rain = 0
KWE2 151143Z 21007KT 18/15 A2985 RMK A01 T01790153  RH  085%=      5-min Rain = 0
KWE2 151144Z 21007KT 18/15 A2985 RMK A01 T01780153  RH  085%=      5-min Rain = 0
KWE2 151145Z 21007KT 18/15 A2985 RMK A01 T01780153  RH  085%=      5-min Rain = 0
KWE2 151146Z 21007KT 18/15 A2985 RMK A01 T01790153  RH  085%=      5-min Rain = 0
KWE2 151147Z 21007KT 18/15 A2985 RMK A01 T01780153  RH  085%=      5-min Rain = 0
KWE2 151148Z 21007KT 18/15 A2985 RMK A01 T01780153  RH  085%=      5-min Rain = 0
KWE2 151149Z 21007KT 18/15 A2985 RMK A01 T01780153  RH  085%=      5-min Rain = 0
KWE2 151150Z 21007KT 18/15 A2985 RMK A01 T01780153  RH  085%=      5-min Rain = 0
KWE2 151151Z 20006KT 18/15 A2985 RMK A01 T01770152  RH  085%=      5-min Rain = 0
KWE2 151152Z 20006KT 18/15 A2985 RMK A01 T01760152  RH  086%=      5-min Rain = 0
KWE2 151153Z 20006KT 18/15 A2985 RMK A01 T01760152  RH  086%=      5-min Rain = 0
KWE2 151154Z 20006KT 18/15 A2985 RMK A01 T01760152  RH  086%=      5-min Rain = 0
KWE2 151155Z 20006KT 18/15 A2985 RMK A01 T01760153  RH  086%=      5-min Rain = 0
KWE2 151156Z 20007KT 18/15 A2985 RMK A01 T01750152  RH  086%=      5-min Rain = 0
KWE2 151157Z 20007KT 18/15 A2985 RMK A01 T01750152  RH  086%=      5-min Rain = 0
KWE2 151158Z 20006KT 18/15 A2985 RMK A01 T01750152  RH  086%=      5-min Rain = 0
KWE2 151159Z 20006KT 18/15 A2985 RMK A01 T01750152  RH  086%=      5-min Rain = 0
KWE2 151200Z 20007KT 18/15 A2985 RMK A01 T01750152  RH  087%=      5-min Rain = 0
KWE2 151201Z 21007KT 18/15 A2985 RMK A01 T01750152  RH  087%=      5-min Rain = 0
KWE2 151202Z 21007KT 18/15 A2985 RMK A01 T01750152  RH  087%=      5-min Rain = 0
KWE2 151203Z 21007KT 18/15 A2985 RMK A01 T01750152  RH  087%=      5-min Rain = 0
KWE2 151204Z 21007KT 18/15 A2985 RMK A01 T01750152  RH  086%=      5-min Rain = 0
KWE2 151205Z 21007KT 18/15 A2985 RMK A01 T01760152  RH  086%=      5-min Rain = 0
KWE2 151206Z 21007KT 18/15 A2985 RMK A01 T01760152  RH  086%=      5-min Rain = 0
KWE2 151207Z 21007KT 18/15 A2985 RMK A01 T01760151  RH  085%=      5-min Rain = 0
KWE2 151208Z 21007KT 18/15 A2985 RMK A01 T01770151  RH  085%=      5-min Rain = 0
KWE2 151209Z 22007KT 18/15 A2985 RMK A01 T01770151  RH  085%=      5-min Rain = 0
KWE2 151210Z 22007KT 18/15 A2985 RMK A01 T01770151  RH  084%=      5-min Rain = 0
KWE2 151211Z 22007KT 18/15 A2985 RMK A01 T01780151  RH  084%=      5-min Rain = 0
KWE2 151212Z 22006KT 18/15 A2985 RMK A01 T01780151  RH  084%=      5-min Rain = 0
KWE2 151213Z 22007KT 18/15 A2985 RMK A01 T01780150  RH  084%=      5-min Rain = 0
KWE2 151214Z 22006KT 18/15 A2985 RMK A01 T01780150  RH  084%=      5-min Rain = 0
KWE2 151215Z 22007KT 18/15 A2985 RMK A01 T01780150  RH  084%=      5-min Rain = 0
KWE2 151216Z 22007KT 18/15 A2985 RMK A01 T01780150  RH  084%=      5-min Rain = 0
KWE2 151217Z 22006KT 18/15 A2985 RMK A01 T01780150  RH  084%=      5-min Rain = 0
KWE2 151218Z 22006KT 18/15 A2985 RMK A01 T01790150  RH  083%=      5-min Rain = 0
KWE2 151219Z 23006KT 18/15 A2986 RMK A01 T01790149  RH  083%=      5-min Rain = 0
KWE2 151220Z 23006KT 18/15 A2986 RMK A01 T01800149  RH  082%=      5-min Rain = 0
KWE2 151221Z 23007KT 18/15 A2986 RMK A01 T01800149  RH  082%=      5-min Rain = 0
KWE2 151222Z 23006KT 18/15 A2986 RMK A01 T01810149  RH  082%=      5-min Rain = 0
KWE2 151223Z 23006KT 18/15 A2986 RMK A01 T01810149  RH  081%=      5-min Rain = 0
KWE2 151224Z 23006KT 18/15 A2986 RMK A01 T01820149  RH  081%=      5-min Rain = 0
KWE2 151225Z 23006KT 18/15 A2986 RMK A01 T01820149  RH  081%=      5-min Rain = 0
KWE2 151226Z 24006KT 18/15 A2986 RMK A01 T01830149  RH  081%=      5-min Rain = 0
KWE2 151227Z 24006KT 18/15 A2986 RMK A01 T01830149  RH  081%=      5-min Rain = 0
KWE2 151228Z 25006KT 18/15 A2986 RMK A01 T01830149  RH  081%=      5-min Rain = 0
KWE2 151229Z 24006KT 18/15 A2986 RMK A01 T01840149  RH  080%=      5-min Rain = 0
KWE2 151230Z 24006KT 18/15 A2986 RMK A01 T01840149  RH  080%=      5-min Rain = 0
KWE2 151231Z 24007KT 19/15 A2986 RMK A01 T01850149  RH  080%=      5-min Rain = 0
KWE2 151232Z 24006KT 19/15 A2986 RMK A01 T01860149  RH  079%=      5-min Rain = 0
KWE2 151233Z 24007KT 19/15 A2986 RMK A01 T01860149  RH  079%=      5-min Rain = 0
KWE2 151234Z 24007KT 19/15 A2986 RMK A01 T01870150  RH  079%=      5-min Rain = 0
KWE2 151235Z 24007KT 19/15 A2986 RMK A01 T01880149  RH  078%=      5-min Rain = 0
KWE2 151236Z 24005KT 19/15 A2986 RMK A01 T01880150  RH  079%=      5-min Rain = 0
KWE2 151237Z 25006KT 19/15 A2986 RMK A01 T01880150  RH  078%=      5-min Rain = 0
KWE2 151238Z 25006KT 19/15 A2986 RMK A01 T01880150  RH  079%=      5-min Rain = 0
KWE2 151239Z 25006KT 19/15 A2986 RMK A01 T01890150  RH  078%=      5-min Rain = 0
KWE2 151240Z 25006KT 19/15 A2986 RMK A01 T01890150  RH  078%=      5-min Rain = 0
KWE2 151241Z 24006KT 19/15 A2986 RMK A01 T01890151  RH  078%=      5-min Rain = 0
KWE2 151242Z 25005KT 19/15 A2986 RMK A01 T01890151  RH  079%=      5-min Rain = 0
KWE2 151243Z 24006KT 19/15 A2986 RMK A01 T01890152  RH  079%=      5-min Rain = 0
KWE2 151244Z 24005KT 19/15 A2986 RMK A01 T01900152  RH  078%=      5-min Rain = 0
KWE2 151245Z 24005KT 19/15 A2986 RMK A01 T01900152  RH  078%=      5-min Rain = 0
KWE2 151246Z 25005KT 19/15 A2986 RMK A01 T01910152  RH  078%=      5-min Rain = 0
KWE2 151247Z 24005KT 19/15 A2986 RMK A01 T01910152  RH  078%=      5-min Rain = 0
KWE2 151248Z 24005KT 19/15 A2986 RMK A01 T01920152  RH  078%=      5-min Rain = 0
KWE2 151249Z 25005KT 19/15 A2986 RMK A01 T01920152  RH  078%=      5-min Rain = 0
KWE2 151250Z 25005KT 19/15 A2986 RMK A01 T01920152  RH  078%=      5-min Rain = 0
KWE2 151251Z 25004KT 19/15 A2986 RMK A01 T01930153  RH  077%=      5-min Rain = 0
KWE2 151252Z 25005KT 19/15 A2986 RMK A01 T01940153  RH  077%=      5-min Rain = 0
KWE2 151253Z 25006KT 20/15 A2986 RMK A01 T01950152  RH  076%=      5-min Rain = 0
KWE2 151254Z 25005KT 20/15 A2986 RMK A01 T01950152  RH  076%=      5-min Rain = 0
KWE2 151255Z 26006KT 20/15 A2986 RMK A01 T01970152  RH  075%=      5-min Rain = 0
KWE2 151256Z 26006KT 20/15 A2986 RMK A01 T01970151  RH  074%=      5-min Rain = 0
KWE2 151257Z 26006KT 20/15 A2986 RMK A01 T01980151  RH  074%=      5-min Rain = 0
KWE2 151258Z 26006KT 20/15 A2986 RMK A01 T01990150  RH  073%=      5-min Rain = 0
KWE2 151259Z 26006KT 20/15 A2986 RMK A01 T02000151  RH  073%=      5-min Rain = 0
KWE2 151300Z 25006KT 20/15 A2986 RMK A01 T02020150  RH  072%=      5-min Rain = 0
KWE2 151301Z 26007KT 20/15 A2986 RMK A01 T02030149  RH  071%=      5-min Rain = 0
KWE2 151302Z 25007KT 20/15 A2986 RMK A01 T02030148  RH  071%=      5-min Rain = 0
KWE2 151303Z 25008KT 20/15 A2986 RMK A01 T02040147  RH  069%=      5-min Rain = 0
KWE2 151304Z 25007KT 21/15 A2986 RMK A01 T02050146  RH  069%=      5-min Rain = 0
KWE2 151305Z 25006KT 21/15 A2986 RMK A01 T02060147  RH  069%=      5-min Rain = 0
KWE2 151306Z 25007KT 21/15 A2986 RMK A01 T02060147  RH  069%=      5-min Rain = 0
KWE2 151307Z 25007KT 21/15 A2986 RMK A01 T02070147  RH  068%=      5-min Rain = 0
KWE2 151308Z 24007KT 21/15 A2986 RMK A01 T02070146  RH  068%=      5-min Rain = 0
KWE2 151309Z 25008KT 21/15 A2986 RMK A01 T02080146  RH  068%=      5-min Rain = 0
KWE2 151310Z 25006KT 21/15 A2986 RMK A01 T02080146  RH  067%=      5-min Rain = 0
KWE2 151311Z 24006KT 21/15 A2986 RMK A01 T02090147  RH  068%=      5-min Rain = 0
KWE2 151312Z 24007KT 21/15 A2986 RMK A01 T02100146  RH  067%=      5-min Rain = 0
KWE2 151313Z 25007KT 21/15 A2986 RMK A01 T02100147  RH  067%=      5-min Rain = 0
KWE2 151314Z 25008KT 21/15 A2986 RMK A01 T02100145  RH  066%=      5-min Rain = 0
KWE2 151315Z 25008KT 21/14 A2987 RMK A01 T02110144  RH  066%=      5-min Rain = 0
KWE2 151316Z 24006KT 21/15 A2987 RMK A01 T02120146  RH  066%=      5-min Rain = 0
KWE2 151317Z 24007KT 21/15 A2987 RMK A01 T02130146  RH  065%=      5-min Rain = 0
KWE2 151318Z 24006KT 21/15 A2987 RMK A01 T02140145  RH  065%=      5-min Rain = 0
KWE2 151319Z 24006KT 22/14 A2987 RMK A01 T02150144  RH  064%=      5-min Rain = 0
KWE2 151320Z 25007KT 22/14 A2987 RMK A01 T02160144  RH  064%=      5-min Rain = 0
KWE2 151321Z 24008KT 22/14 A2987 RMK A01 T02160144  RH  063%=      5-min Rain = 0
KWE2 151322Z 24008KT 22/14 A2987 RMK A01 T02160144  RH  063%=      5-min Rain = 0
KWE2 151323Z 23007KT 22/14 A2987 RMK A01 T02170144  RH  063%=      5-min Rain = 0
KWE2 151324Z 23007KT 22/14 A2987 RMK A01 T02180143  RH  063%=      5-min Rain = 0
KWE2 151325Z 23006KT 22/14 A2987 RMK A01 T02190144  RH  063%=      5-min Rain = 0
KWE2 151326Z 23007KT 22/15 A2987 RMK A01 T02190145  RH  063%=      5-min Rain = 0
KWE2 151327Z 23007KT 22/14 A2987 RMK A01 T02190144  RH  062%=      5-min Rain = 0
KWE2 151328Z 23006KT 22/15 A2987 RMK A01 T02200145  RH  062%=      5-min Rain = 0
KWE2 151329Z 23008KT 22/14 A2987 RMK A01 T02210144  RH  062%=      5-min Rain = 0
KWE2 151330Z 24009KT 22/14 A2987 RMK A01 T02210143  RH  061%=      5-min Rain = 0
KWE2 151331Z 23006KT 22/14 A2987 RMK A01 T02220143  RH  061%=      5-min Rain = 0
KWE2 151332Z 24007KT 22/15 A2987 RMK A01 T02220145  RH  061%=      5-min Rain = 0
KWE2 151333Z 23007KT 22/14 A2987 RMK A01 T02240144  RH  061%=      5-min Rain = 0
KWE2 151334Z 23008KT 23/14 A2987 RMK A01 T02250144  RH  060%=      5-min Rain = 0
KWE2 151335Z 23009KT 23/14 A2987 RMK A01 T02250143  RH  060%=      5-min Rain = 0
KWE2 151336Z 23008KT 23/14 A2987 RMK A01 T02260143  RH  059%=      5-min Rain = 0
KWE2 151337Z 23009KT 23/14 A2987 RMK A01 T02270142  RH  059%=      5-min Rain = 0
KWE2 151338Z 23009KT 23/14 A2987 RMK A01 T02280143  RH  059%=      5-min Rain = 0
KWE2 151339Z 23009KT 23/14 A2987 RMK A01 T02290142  RH  058%=      5-min Rain = 0
KWE2 151340Z 23009KT 23/14 A2987 RMK A01 T02310142  RH  057%=      5-min Rain = 0
KWE2 151341Z 23008KT 23/14 A2987 RMK A01 T02320142  RH  057%=      5-min Rain = 0
KWE2 151342Z 23008KT 23/14 A2987 RMK A01 T02320143  RH  057%=      5-min Rain = 0
KWE2 151343Z 23008KT 23/14 A2987 RMK A01 T02330144  RH  057%=      5-min Rain = 0
KWE2 151344Z 23008KT 24/14 A2987 RMK A01 T02350144  RH  056%=      5-min Rain = 0
KWE2 151345Z 22009KT 24/14 A2987 RMK A01 T02360144  RH  056%=      5-min Rain = 0
KWE2 151346Z 22009KT 24/14 A2987 RMK A01 T02360144  RH  056%=      5-min Rain = 0
KWE2 151347Z 23011KT 24/14 A2987 RMK A01 T02350143  RH  056%=      5-min Rain = 0
KWE2 151348Z 23011KT 24/14 A2987 RMK A01 T02360141  RH  055%=      5-min Rain = 0
KWE2 151349Z 23010KT 24/14 A2987 RMK A01 T02370141  RH  055%=      5-min Rain = 0
KWE2 151350Z 23010KT 24/14 A2987 RMK A01 T02390142  RH  054%=      5-min Rain = 0
KWE2 151351Z 23011KT 24/14 A2987 RMK A01 T02390140  RH  054%=      5-min Rain = 0
KWE2 151352Z 23012KT 24/14 A2987 RMK A01 T02400140  RH  053%=      5-min Rain = 0
KWE2 151353Z 23011G17KT 24/14 A2987 RMK A01 T02410140  RH  053%=      5-min Rain = 0
KWE2 151354Z 23013KT 24/14 A2987 RMK A01 T02410139  RH  053%=      5-min Rain = 0
KWE2 151355Z 23011KT 24/14 A2987 RMK A01 T02400140  RH  053%=      5-min Rain = 0
KWE2 151356Z 23014KT 24/14 A2987 RMK A01 T02410139  RH  053%=      5-min Rain = 0
KWE2 151357Z 23012KT 24/14 A2987 RMK A01 T02410139  RH  053%=      5-min Rain = 0
KWE2 151358Z 23011KT 24/14 A2987 RMK A01 T02410140  RH  053%=      5-min Rain = 0
KWE2 151359Z 23013KT 24/14 A2987 RMK A01 T02430139  RH  052%=      5-min Rain = 0
KWE2 151400Z 24015KT 24/14 A2987 RMK A01 T02430138  RH  052%=      5-min Rain = 0
KWE2 151401Z 24013KT 24/14 A2987 RMK A01 T02420138  RH  052%=      5-min Rain = 0
KWE2 151402Z 23012KT 24/14 A2988 RMK A01 T02420138  RH  052%=      5-min Rain = 0
KWE2 151403Z 23012KT 24/14 A2988 RMK A01 T02430139  RH  052%=      5-min Rain = 0
KWE2 151404Z 23015KT 25/14 A2987 RMK A01 T02450139  RH  052%=      5-min Rain = 0
KWE2 151405Z 23012KT 25/14 A2988 RMK A01 T02450139  RH  052%=      5-min Rain = 0
KWE2 151406Z 24011KT 25/14 A2988 RMK A01 T02450139  RH  052%=      5-min Rain = 0
KWE2 151407Z 23012KT 25/14 A2988 RMK A01 T02460139  RH  052%=      5-min Rain = 0
KWE2 151408Z 23013KT 25/14 A2988 RMK A01 T02460140  RH  052%=      5-min Rain = 0
KWE2 151409Z 23013KT 25/14 A2988 RMK A01 T02460139  RH  052%=      5-min Rain = 0
KWE2 151410Z 23014KT 25/14 A2988 RMK A01 T02450140  RH  052%=      5-min Rain = 0
KWE2 151411Z 22012KT 25/14 A2988 RMK A01 T02450140  RH  052%=      5-min Rain = 0
KWE2 151412Z 23015KT 25/14 A2988 RMK A01 T02470140  RH  051%=      5-min Rain = 0
KWE2 151413Z 23012KT 25/14 A2988 RMK A01 T02470140  RH  051%=      5-min Rain = 0
KWE2 151414Z 23013KT 25/14 A2988 RMK A01 T02470139  RH  051%=      5-min Rain = 0
KWE2 151415Z 23013KT 25/14 A2988 RMK A01 T02470140  RH  051%=      5-min Rain = 0
KWE2 151416Z 23011G16KT 25/14 A2988 RMK A01 T02470141  RH  051%=      5-min Rain = 0
KWE2 151417Z 24015KT 25/14 A2987 RMK A01 T02490140  RH  050%=      5-min Rain = 0
KWE2 151418Z 24014KT 25/14 A2988 RMK A01 T02510140  RH  050%=      5-min Rain = 0
KWE2 151419Z 23013KT 25/14 A2987 RMK A01 T02510139  RH  050%=      5-min Rain = 0
KWE2 151420Z 24014KT 25/14 A2987 RMK A01 T02500140  RH  050%=      5-min Rain = 0
KWE2 151421Z 23014KT 25/14 A2987 RMK A01 T02500139  RH  050%=      5-min Rain = 0
KWE2 151422Z 24015KT 25/14 A2987 RMK A01 T02510139  RH  050%=      5-min Rain = 0
KWE2 151423Z 23015KT 25/14 A2987 RMK A01 T02510139  RH  050%=      5-min Rain = 0
KWE2 151424Z 24014KT 25/14 A2987 RMK A01 T02510140  RH  050%=      5-min Rain = 0
KWE2 151425Z 23016KT 25/14 A2987 RMK A01 T02530139  RH  049%=      5-min Rain = 0
KWE2 151426Z 24015KT 25/14 A2987 RMK A01 T02530139  RH  049%=      5-min Rain = 0
KWE2 151427Z 25014KT 25/14 A2987 RMK A01 T02520140  RH  050%=      5-min Rain = 0
KWE2 151428Z 24014KT 25/14 A2987 RMK A01 T02540140  RH  049%=      5-min Rain = 0
KWE2 151429Z 24012KT 26/14 A2987 RMK A01 T02550141  RH  049%=      5-min Rain = 0
KWE2 151430Z 23014KT 26/14 A2987 RMK A01 T02570141  RH  049%=      5-min Rain = 0
KWE2 151431Z 24016KT 26/14 A2987 RMK A01 T02580140  RH  048%=      5-min Rain = 0
KWE2 151432Z 24016KT 26/14 A2987 RMK A01 T02580140  RH  048%=      5-min Rain = 0
KWE2 151433Z 24014KT 26/14 A2987 RMK A01 T02580140  RH  048%=      5-min Rain = 0
KWE2 151434Z 24014KT 26/14 A2987 RMK A01 T02580141  RH  048%=      5-min Rain = 0
KWE2 151435Z 24012KT 26/14 A2987 RMK A01 T02600141  RH  048%=      5-min Rain = 0
KWE2 151436Z 25014KT 26/14 A2987 RMK A01 T02610141  RH  047%=      5-min Rain = 0
KWE2 151437Z 24012KT 26/14 A2987 RMK A01 T02610141  RH  047%=      5-min Rain = 0
KWE2 151438Z 23013KT 26/14 A2987 RMK A01 T02620141  RH  048%=      5-min Rain = 0
KWE2 151439Z 23014KT 26/14 A2987 RMK A01 T02630141  RH  047%=      5-min Rain = 0
KWE2 151440Z 23012KT 26/14 A2987 RMK A01 T02630142  RH  047%=      5-min Rain = 0
KWE2 151441Z 24012KT 27/14 A2987 RMK A01 T02650143  RH  047%=      5-min Rain = 0
KWE2 151442Z 23012KT 27/14 A2987 RMK A01 T02650143  RH  047%=      5-min Rain = 0
KWE2 151443Z 24012KT 27/14 A2987 RMK A01 T02660143  RH  047%=      5-min Rain = 0
KWE2 151444Z 24011KT 27/14 A2987 RMK A01 T02680144  RH  047%=      5-min Rain = 0
KWE2 151445Z 24013KT 27/14 A2987 RMK A01 T02710144  RH  046%=      5-min Rain = 0
KWE2 151446Z 24012KT 27/14 A2987 RMK A01 T02730143  RH  045%=      5-min Rain = 0
KWE2 151447Z 24013KT 27/14 A2987 RMK A01 T02740141  RH  044%=      5-min Rain = 0
KWE2 151448Z 24013KT 27/14 A2987 RMK A01 T02740142  RH  044%=      5-min Rain = 0
KWE2 151449Z 24013KT 27/14 A2987 RMK A01 T02740141  RH  044%=      5-min Rain = 0
KWE2 151450Z 25013KT 27/14 A2987 RMK A01 T02740141  RH  044%=      5-min Rain = 0
KWE2 151451Z 24013KT 27/14 A2987 RMK A01 T02740141  RH  044%=      5-min Rain = 0
KWE2 151452Z 24015KT 28/14 A2987 RMK A01 T02770137  RH  042%=      5-min Rain = 0
KWE2 151453Z 24014KT 28/14 A2987 RMK A01 T02780136  RH  042%=      5-min Rain = 0
KWE2 151454Z 24015KT 28/14 A2987 RMK A01 T02790135  RH  041%=      5-min Rain = 0
KWE2 151455Z 24015KT 28/14 A2987 RMK A01 T02800136  RH  041%=      5-min Rain = 0
KWE2 151456Z 24015KT 28/13 A2987 RMK A01 T02810134  RH  040%=      5-min Rain = 0
KWE2 151457Z 25017KT 28/13 A2987 RMK A01 T02810133  RH  040%=      5-min Rain = 0
KWE2 151458Z 24015KT 28/13 A2987 RMK A01 T02820132  RH  040%=      5-min Rain = 0
KWE2 151459Z 25016KT 28/13 A2987 RMK A01 T02830130  RH  039%=      5-min Rain = 0
KWE2 151500Z 24015KT 28/13 A2987 RMK A01 T02830127  RH  038%=      5-min Rain = 0
KWE2 151501Z 25016KT 28/13 A2987 RMK A01 T02830128  RH  038%=      5-min Rain = 0
KWE2 151502Z 25014KT 28/13 A2987 RMK A01 T02840126  RH  038%=      5-min Rain = 0
KWE2 151503Z 25014KT 29/13 A2987 RMK A01 T02850131  RH  039%=      5-min Rain = 0
KWE2 151504Z 25014KT 29/13 A2987 RMK A01 T02850133  RH  039%=      5-min Rain = 0
KWE2 151505Z 26015KT 29/13 A2987 RMK A01 T02860129  RH  038%=      5-min Rain = 0
KWE2 151506Z 25014KT 29/13 A2987 RMK A01 T02890126  RH  037%=      5-min Rain = 0
KWE2 151507Z 24015KT 29/13 A2987 RMK A01 T02890129  RH  037%=      5-min Rain = 0
KWE2 151508Z 25014KT 29/13 A2987 RMK A01 T02870129  RH  038%=      5-min Rain = 0
KWE2 151509Z 24013KT 29/13 A2987 RMK A01 T02880130  RH  038%=      5-min Rain = 0
KWE2 151510Z 25013KT 29/13 A2987 RMK A01 T02900128  RH  037%=      5-min Rain = 0
KWE2 151511Z 24015KT 29/13 A2987 RMK A01 T02920126  RH  036%=      5-min Rain = 0
KWE2 151512Z 24015KT 29/13 A2987 RMK A01 T02910125  RH  036%=      5-min Rain = 0
KWE2 151513Z 24015KT 29/12 A2987 RMK A01 T02910124  RH  036%=      5-min Rain = 0
KWE2 151514Z 24012KT 29/13 A2987 RMK A01 T02910126  RH  036%=      5-min Rain = 0
KWE2 151515Z 25012KT 29/13 A2987 RMK A01 T02930127  RH  036%=      5-min Rain = 0
KWE2 151516Z 24013KT 30/13 A2987 RMK A01 T02960125  RH  035%=      5-min Rain = 0
KWE2 151517Z 25013KT 30/13 A2987 RMK A01 T02970126  RH  035%=      5-min Rain = 0
KWE2 151518Z 25012KT 30/13 A2987 RMK A01 T02970127  RH  035%=      5-min Rain = 0
KWE2 151519Z 25013KT 30/13 A2987 RMK A01 T02970126  RH  035%=      5-min Rain = 0
KWE2 151520Z 26012KT 30/12 A2987 RMK A01 T02990123  RH  034%=      5-min Rain = 0
KWE2 151521Z 24013KT 30/13 A2987 RMK A01 T03000125  RH  034%=      5-min Rain = 0
KWE2 151522Z 24014KT 30/12 A2987 RMK A01 T03010120  RH  033%=      5-min Rain = 0
KWE2 151523Z 25014KT 30/12 A2987 RMK A01 T03010118  RH  032%=      5-min Rain = 0
KWE2 151524Z 24015KT 30/11 A2987 RMK A01 T03030113  RH  031%=      5-min Rain = 0
KWE2 151525Z 25013KT 30/11 A2987 RMK A01 T03030114  RH  031%=      5-min Rain = 0
KWE2 151526Z 26015KT 30/11 A2987 RMK A01 T03040111  RH  030%=      5-min Rain = 0
KWE2 151527Z 25014KT 31/11 A2987 RMK A01 T03050106  RH  029%=      5-min Rain = 0
KWE2 151528Z 25015KT 31/11 A2987 RMK A01 T03060105  RH  029%=      5-min Rain = 0
KWE2 151529Z 26014KT 31/11 A2987 RMK A01 T03070108  RH  029%=      5-min Rain = 0
KWE2 151530Z 26014KT 31/11 A2987 RMK A01 T03070109  RH  029%=      5-min Rain = 0
KWE2 151531Z 26014KT 31/11 A2987 RMK A01 T03090110  RH  029%=      5-min Rain = 0
KWE2 151532Z 26015KT 31/11 A2987 RMK A01 T03100109  RH  029%=      5-min Rain = 0
KWE2 151533Z 26014KT 31/11 A2987 RMK A01 T03090108  RH  029%=      5-min Rain = 0
KWE2 151534Z 25013KT 31/11 A2987 RMK A01 T03080107  RH  029%=      5-min Rain = 0
KWE2 151535Z 25013KT 31/11 A2987 RMK A01 T03110108  RH  029%=      5-min Rain = 0
KWE2 151536Z 25015KT 31/10 A2987 RMK A01 T03140102  RH  027%=      5-min Rain = 0
KWE2 151537Z 24014KT 31/10 A2987 RMK A01 T03120102  RH  027%=      5-min Rain = 0
KWE2 151538Z 24012KT 31/10 A2987 RMK A01 T03110102  RH  027%=      5-min Rain = 0
KWE2 151539Z 24014KT 31/10 A2987 RMK A01 T03130102  RH  027%=      5-min Rain = 0
KWE2 151540Z 25014KT 31/10 A2987 RMK A01 T03130099  RH  027%=      5-min Rain = 0
KWE2 151541Z 26012KT 31/10 A2987 RMK A01 T03120102  RH  027%=      5-min Rain = 0
KWE2 151542Z 25012KT 31/10 A2987 RMK A01 T03130099  RH  027%=      5-min Rain = 0
KWE2 151543Z 25014KT 32/10 A2987 RMK A01 T03150104  RH  027%=      5-min Rain = 0
KWE2 151544Z 25013KT 32/10 A2987 RMK A01 T03160098  RH  026%=      5-min Rain = 0
KWE2 151545Z 25012KT 32/10 A2987 RMK A01 T03160101  RH  027%=      5-min Rain = 0
KWE2 151546Z 25011KT 32/10 A2987 RMK A01 T03160101  RH  027%=      5-min Rain = 0
KWE2 151547Z 25010KT 32/08 A2987 RMK A01 T03170082  RH  023%=      5-min Rain = 0
KWE2 151548Z 26012G18KT 32/09 A2987 RMK A01 T03180087  RH  024%=      5-min Rain = 0
KWE2 151549Z 26013KT 32/07 A2987 RMK A01 T03190071  RH  021%=      5-min Rain = 0
KWE2 151550Z 26010KT 32/08 A2987 RMK A01 T03190083  RH  023%=      5-min Rain = 0
KWE2 151551Z 25011KT 32/09 A2987 RMK A01 T03180088  RH  024%=      5-min Rain = 0
KWE2 151552Z 27012KT 32/09 A2987 RMK A01 T03190090  RH  024%=      5-min Rain = 0
KWE2 151553Z 29011KT 32/08 A2987 RMK A01 T03230082  RH  023%=      5-min Rain = 0
KWE2 151554Z 27012G17KT 32/09 A2987 RMK A01 T03230085  RH  023%=      5-min Rain = 0
KWE2 151555Z 28015G20KT 32/07 A2987 RMK A01 T03240071  RH  021%=      5-min Rain = 0
KWE2 151556Z 28016KT 32/06 A2987 RMK A01 T03230061  RH  019%=      5-min Rain = 0
KWE2 151557Z 29011KT 32/06 A2987 RMK A01 T03220059  RH  019%=      5-min Rain = 0
KWE2 151558Z 29012KT 32/06 A2987 RMK A01 T03200063  RH  020%=      5-min Rain = 0
KWE2 151559Z 30014KT 32/07 A2987 RMK A01 T03210070  RH  021%=      5-min Rain = 0
KWE2 151600Z 28013KT 32/07 A2987 RMK A01 T03240066  RH  020%=      5-min Rain = 0
KWE2 151601Z 30013KT 33/06 A2987 RMK A01 T03250061  RH  019%=      5-min Rain = 0
KWE2 151602Z 32011KT 33/07 A2987 RMK A01 T03310067  RH  019%=      5-min Rain = 0
KWE2 151603Z 30012KT 33/07 A2987 RMK A01 T03320069  RH  020%=      5-min Rain = 0
KWE2 151604Z 30012KT 33/07 A2987 RMK A01 T03280067  RH  020%=      5-min Rain = 0
KWE2 151605Z 28012KT 33/07 A2987 RMK A01 T03260065  RH  020%=      5-min Rain = 0
KWE2 151606Z 29011KT 33/06 A2987 RMK A01 T03260064  RH  020%=      5-min Rain = 0
KWE2 151607Z 30014KT 33/07 A2987 RMK A01 T03250067  RH  020%=      5-min Rain = 0
KWE2 151608Z 31015KT 33/07 A2987 RMK A01 T03280070  RH  020%=      5-min Rain = 0
KWE2 151609Z 30011KT 33/07 A2987 RMK A01 T03300069  RH  020%=      5-min Rain = 0
KWE2 151610Z 29014KT 33/07 A2987 RMK A01 T03290071  RH  020%=      5-min Rain = 0
KWE2 151611Z 29013KT 33/07 A2987 RMK A01 T03300067  RH  020%=      5-min Rain = 0
KWE2 151612Z 30012KT 33/07 A2987 RMK A01 T03280067  RH  020%=      5-min Rain = 0
KWE2 151613Z 31016KT 33/07 A2987 RMK A01 T03280066  RH  019%=      5-min Rain = 0
KWE2 151614Z 31014KT 33/06 A2987 RMK A01 T03290061  RH  019%=      5-min Rain = 0
KWE2 151615Z 31014KT 33/06 A2987 RMK A01 T03290063  RH  019%=      5-min Rain = 0
KWE2 151616Z 30013KT 33/06 A2987 RMK A01 T03280064  RH  019%=      5-min Rain = 0
KWE2 151617Z 30013KT 33/07 A2987 RMK A01 T03270069  RH  020%=      5-min Rain = 0
KWE2 151618Z 31015KT 33/07 A2987 RMK A01 T03310073  RH  020%=      5-min Rain = 0
KWE2 151619Z 30014KT 33/07 A2987 RMK A01 T03310072  RH  020%=      5-min Rain = 0
KWE2 151620Z 29015KT 33/07 A2987 RMK A01 T03290073  RH  020%=      5-min Rain = 0
KWE2 151621Z 30013KT 33/07 A2987 RMK A01 T03290072  RH  020%=      5-min Rain = 0
KWE2 151622Z 29014KT 33/07 A2987 RMK A01 T03290073  RH  020%=      5-min Rain = 0
KWE2 151623Z 30013KT 33/07 A2987 RMK A01 T03290072  RH  020%=      5-min Rain = 0
KWE2 151624Z 32013KT 33/07 A2987 RMK A01 T03290074  RH  020%=      5-min Rain = 0
KWE2 151625Z 31011KT 33/07 A2988 RMK A01 T03280074  RH  021%=      5-min Rain = 0
KWE2 151626Z 29015KT 33/07 A2987 RMK A01 T03270074  RH  021%=      5-min Rain = 0
KWE2 151627Z 29015KT 33/07 A2987 RMK A01 T03280071  RH  020%=      5-min Rain = 0
KWE2 151628Z 30013KT 33/07 A2988 RMK A01 T03280070  RH  020%=      5-min Rain = 0
KWE2 151629Z 30011KT 33/07 A2988 RMK A01 T03290074  RH  021%=      5-min Rain = 0
KWE2 151630Z 30013KT 33/08 A2987 RMK A01 T03310077  RH  021%=      5-min Rain = 0
KWE2 151631Z 30013KT 33/08 A2987 RMK A01 T03340075  RH  020%=      5-min Rain = 0
KWE2 151632Z 31012KT 34/07 A2988 RMK A01 T03350069  RH  019%=      5-min Rain = 0
KWE2 151633Z 32011KT 34/07 A2987 RMK A01 T03360067  RH  019%=      5-min Rain = 0
KWE2 151634Z 32012KT 34/07 A2987 RMK A01 T03350069  RH  019%=      5-min Rain = 0
KWE2 151635Z 32012KT 33/07 A2987 RMK A01 T03320070  RH  020%=      5-min Rain = 0
KWE2 151636Z 31011KT 33/07 A2988 RMK A01 T03320071  RH  020%=      5-min Rain = 0
KWE2 151637Z 30010KT 33/07 A2987 RMK A01 T03310073  RH  020%=      5-min Rain = 0
KWE2 151638Z 28011KT 33/07 A2987 RMK A01 T03310074  RH  020%=      5-min Rain = 0
KWE2 151639Z 28014KT 33/07 A2987 RMK A01 T03330071  RH  020%=      5-min Rain = 0
KWE2 151640Z 29015KT 33/08 A2987 RMK A01 T03330075  RH  020%=      5-min Rain = 0
KWE2 151641Z 31012KT 33/07 A2987 RMK A01 T03340074  RH  020%=      5-min Rain = 0
KWE2 151642Z 30009KT 33/07 A2987 RMK A01 T03310071  RH  020%=      5-min Rain = 0
KWE2 151643Z 30012KT 33/07 A2987 RMK A01 T03320072  RH  020%=      5-min Rain = 0
KWE2 151644Z 29013KT 34/07 A2987 RMK A01 T03360071  RH  019%=      5-min Rain = 0
KWE2 151645Z 30012KT 34/07 A2987 RMK A01 T03360066  RH  019%=      5-min Rain = 0
KWE2 151646Z 30010KT 33/07 A2987 RMK A01 T03310065  RH  019%=      5-min Rain = 0
KWE2 151647Z 31009KT 33/07 A2987 RMK A01 T03300066  RH  019%=      5-min Rain = 0
KWE2 151648Z 31008KT 33/07 A2987 RMK A01 T03320067  RH  019%=      5-min Rain = 0
KWE2 151649Z 29007KT 33/07 A2987 RMK A01 T03310068  RH  020%=      5-min Rain = 0
KWE2 151650Z 32009KT 33/07 A2987 RMK A01 T03310069  RH  020%=      5-min Rain = 0
KWE2 151651Z 31011KT 33/07 A2987 RMK A01 T03320069  RH  020%=      5-min Rain = 0
KWE2 151652Z 32011KT 34/07 A2987 RMK A01 T03350068  RH  019%=      5-min Rain = 0
KWE2 151653Z 30012KT 34/07 A2987 RMK A01 T03370066  RH  019%=      5-min Rain = 0
KWE2 151654Z 29010KT 34/07 A2987 RMK A01 T03370065  RH  019%=      5-min Rain = 0
KWE2 151655Z 29010KT 34/07 A2987 RMK A01 T03360069  RH  019%=      5-min Rain = 0
KWE2 151656Z 31011KT 34/07 A2987 RMK A01 T03380065  RH  018%=      5-min Rain = 0
KWE2 151657Z 30007KT 34/07 A2987 RMK A01 T03360065  RH  019%=      5-min Rain = 0
KWE2 151658Z 33009KT 33/07 A2987 RMK A01 T03340069  RH  019%=      5-min Rain = 0
KWE2 151659Z 33009KT 33/07 A2987 RMK A01 T03330071  RH  020%=      5-min Rain = 0
KWE2 151700Z 34007KT 33/07 A2987 RMK A01 T03330071  RH  020%=      5-min Rain = 0
KWE2 151701Z 35007KT 33/07 A2987 RMK A01 T03330070  RH  020%=      5-min Rain = 0
KWE2 151702Z 35009KT 33/07 A2987 RMK A01 T03340074  RH  020%=      5-min Rain = 0
KWE2 151703Z 32007KT 33/08 A2987 RMK A01 T03340075  RH  020%=      5-min Rain = 0
KWE2 151704Z 32005KT 33/07 A2987 RMK A01 T03330072  RH  020%=      5-min Rain = 0
KWE2 151705Z 35006KT 33/07 A2987 RMK A01 T03320073  RH  020%=      5-min Rain = 0
KWE2 151706Z 31006G11KT 33/07 A2987 RMK A01 T03340074  RH  020%=      5-min Rain = 0
KWE2 151707Z 30009KT 34/06 A2987 RMK A01 T03390059  RH  018%=      5-min Rain = 0
KWE2 151708Z 30006KT 34/06 A2987 RMK A01 T03380061  RH  018%=      5-min Rain = 0
KWE2 151709Z 30006KT 34/06 A2987 RMK A01 T03380059  RH  018%=      5-min Rain = 0
KWE2 151710Z 31008KT 34/06 A2987 RMK A01 T03390059  RH  017%=      5-min Rain = 0
KWE2 151711Z 34008KT 34/05 A2987 RMK A01 T03420053  RH  017%=      5-min Rain = 0
KWE2 151712Z 33009KT 34/05 A2987 RMK A01 T03420053  RH  016%=      5-min Rain = 0
KWE2 151713Z 30008KT 34/05 A2987 RMK A01 T03430048  RH  016%=      5-min Rain = 0
KWE2 151714Z 28005KT 34/05 A2987 RMK A01 T03420051  RH  016%=      5-min Rain = 0
KWE2 151715Z 32011KT 34/05 A2987 RMK A01 T03420047  RH  016%=      5-min Rain = 0
KWE2 151716Z 35009KT 34/05 A2987 RMK A01 T03440049  RH  016%=      5-min Rain = 0
KWE2 151717Z 34011KT 35/03 A2987 RMK A01 T03460034  RH  014%=      5-min Rain = 0
KWE2 151718Z 33009KT 35/03 A2987 RMK A01 T03450030  RH  014%=      5-min Rain = 0
KWE2 151719Z 33010KT 34/03 A2987 RMK A01 T03440030  RH  014%=      5-min Rain = 0
KWE2 151720Z 34012KT 35/03 A2987 RMK A01 T03450029  RH  014%=      5-min Rain = 0
KWE2 151721Z 33011KT 35/03 A2987 RMK A01 T03470034  RH  014%=      5-min Rain = 0
KWE2 151722Z 33011KT 35/03 A2987 RMK A01 T03480034  RH  014%=      5-min Rain = 0
KWE2 151723Z 33010KT 35/03 A2987 RMK A01 T03480034  RH  014%=      5-min Rain = 0
KWE2 151724Z 32009KT 35/03 A2987 RMK A01 T03470031  RH  014%=      5-min Rain = 0
KWE2 151725Z 31007KT 35/03 A2987 RMK A01 T03470032  RH  014%=      5-min Rain = 0
KWE2 151726Z 32005KT 35/03 A2987 RMK A01 T03460032  RH  014%=      5-min Rain = 0
KWE2 151727Z 35007G13KT 35/03 A2987 RMK A01 T03470034  RH  014%=      5-min Rain = 0
KWE2 151728Z 34008KT 35/04 A2987 RMK A01 T03480038  RH  014%=      5-min Rain = 0
KWE2 151729Z 32007KT 35/04 A2987 RMK A01 T03510035  RH  014%=      5-min Rain = 0
KWE2 151730Z 33006KT 35/04 A2987 RMK A01 T03510035  RH  014%=      5-min Rain = 0
KWE2 151731Z 31011G16KT 35/03 A2987 RMK A01 T03520034  RH  014%=      5-min Rain = 0
KWE2 151732Z 30010KT 35/03 A2988 RMK A01 T03530032  RH  013%=      5-min Rain = 0
KWE2 151733Z 30009KT 35/03 A2987 RMK A01 T03510033  RH  014%=      5-min Rain = 0
KWE2 151734Z 30008KT 35/03 A2987 RMK A01 T03520034  RH  014%=      5-min Rain = 0
KWE2 151735Z 32009KT 35/04 A2988 RMK A01 T03500036  RH  014%=      5-min Rain = 0
KWE2 151736Z 31008KT 35/03 A2988 RMK A01 T03500034  RH  014%=      5-min Rain = 0
KWE2 151737Z 29005KT 35/03 A2988 RMK A01 T03470034  RH  014%=      5-min Rain = 0
KWE2 151738Z 28004KT 35/03 A2988 RMK A01 T03460033  RH  014%=      5-min Rain = 0
KWE2 151739Z 25005KT 35/03 A2988 RMK A01 T03450034  RH  014%=      5-min Rain = 0
KWE2 151740Z 27004KT 35/04 A2988 RMK A01 T03450035  RH  014%=      5-min Rain = 0
KWE2 151741Z 29004KT 35/04 A2988 RMK A01 T03460036  RH  014%=      5-min Rain = 0
KWE2 151742Z 29003KT 35/04 A2988 RMK A01 T03470038  RH  014%=      5-min Rain = 0
KWE2 151743Z 34004KT 35/04 A2987 RMK A01 T03500039  RH  014%=      5-min Rain = 0
KWE2 151744Z 31008G14KT 35/04 A2987 RMK A01 T03530040  RH  014%=      5-min Rain = 0
KWE2 151745Z 29009KT 36/04 A2987 RMK A01 T03570036  RH  013%=      5-min Rain = 0
KWE2 151746Z 32012KT 36/04 A2987 RMK A01 T03600037  RH  013%=      5-min Rain = 0
KWE2 151747Z 32011KT 36/03 A2987 RMK A01 T03600031  RH  013%=      5-min Rain = 0
KWE2 151748Z 31010KT 36/03 A2988 RMK A01 T03600028  RH  013%=      5-min Rain = 0
KWE2 151749Z 30008KT 36/03 A2988 RMK A01 T03560028  RH  013%=      5-min Rain = 0
KWE2 151750Z 29006KT 35/03 A2988 RMK A01 T03530032  RH  013%=      5-min Rain = 0
KWE2 151751Z 30004KT 35/04 A2988 RMK A01 T03510036  RH  014%=      5-min Rain = 0
KWE2 151752Z 30005KT 35/04 A2988 RMK A01 T03530036  RH  014%=      5-min Rain = 0
KWE2 151753Z 31007KT 35/04 A2988 RMK A01 T03540036  RH  014%=      5-min Rain = 0
KWE2 151754Z 33008KT 35/04 A2988 RMK A01 T03540036  RH  014%=      5-min Rain = 0
KWE2 151755Z 32006KT 36/04 A2988 RMK A01 T03560037  RH  014%=      5-min Rain = 0
KWE2 151756Z 32006KT 36/04 A2988 RMK A01 T03570038  RH  014%=      5-min Rain = 0
KWE2 151757Z 30007KT 36/03 A2988 RMK A01 T03570033  RH  013%=      5-min Rain = 0
KWE2 151758Z 31007KT 36/04 A2988 RMK A01 T03560037  RH  014%=      5-min Rain = 0
KWE2 151759Z 33010KT 36/04 A2988 RMK A01 T03580038  RH  014%=      5-min Rain = 0
KWE2 151800Z 34008KT 36/04 A2987 RMK A01 T03570038  RH  014%=      5-min Rain = 0
KWE2 151801Z 33007KT 36/04 A2987 RMK A01 T03570040  RH  014%=      5-min Rain = 0
KWE2 151802Z 31007KT 36/04 A2987 RMK A01 T03590039  RH  014%=      5-min Rain = 0
KWE2 151803Z 35008KT 36/04 A2987 RMK A01 T03550039  RH  014%=      5-min Rain = 0
KWE2 151804Z 36006KT 35/04 A2987 RMK A01 T03540039  RH  014%=      5-min Rain = 0
KWE2 151805Z 36006KT 35/04 A2987 RMK A01 T03540038  RH  014%=      5-min Rain = 0
KWE2 151806Z 35004KT 35/04 A2987 RMK A01 T03520038  RH  014%=      5-min Rain = 0
KWE2 151807Z 34007G13KT 35/04 A2987 RMK A01 T03520035  RH  014%=      5-min Rain = 0
KWE2 151808Z 33012KT 35/04 A2987 RMK A01 T03530035  RH  014%=      5-min Rain = 0
KWE2 151809Z 33009KT 36/04 A2987 RMK A01 T03570036  RH  014%=      5-min Rain = 0
KWE2 151810Z 35010KT 36/04 A2987 RMK A01 T03580036  RH  013%=      5-min Rain = 0
KWE2 151811Z 00009KT 36/04 A2987 RMK A01 T03570036  RH  014%=      5-min Rain = 0
KWE2 151812Z 00010KT 36/04 A2987 RMK A01 T03580040  RH  014%=      5-min Rain = 0
KWE2 151813Z 35010KT 36/04 A2987 RMK A01 T03610042  RH  014%=      5-min Rain = 0
KWE2 151814Z 34010KT 36/04 A2987 RMK A01 T03610043  RH  014%=      5-min Rain = 0
KWE2 151815Z 33011KT 36/04 A2987 RMK A01 T03620043  RH  014%=      5-min Rain = 0
KWE2 151816Z 33009KT 36/04 A2987 RMK A01 T03620040  RH  013%=      5-min Rain = 0
KWE2 151817Z 33007KT 36/04 A2987 RMK A01 T03630041  RH  014%=      5-min Rain = 0
KWE2 151818Z 33006KT 36/04 A2987 RMK A01 T03600040  RH  014%=      5-min Rain = 0
KWE2 151819Z 31005KT 36/04 A2987 RMK A01 T03570038  RH  014%=      5-min Rain = 0
KWE2 151820Z 30006KT 36/04 A2987 RMK A01 T03560036  RH  014%=      5-min Rain = 0
KWE2 151821Z 32004KT 36/04 A2987 RMK A01 T03560037  RH  014%=      5-min Rain = 0
KWE2 151822Z 32004KT 36/04 A2987 RMK A01 T03550037  RH  014%=      5-min Rain = 0
KWE2 151823Z 32002KT 35/04 A2987 RMK A01 T03530037  RH  014%=      5-min Rain = 0
KWE2 151824Z 31002KT 35/04 A2986 RMK A01 T03540038  RH  014%=      5-min Rain = 0
KWE2 151825Z 36001KT 35/04 A2986 RMK A01 T03540040  RH  014%=      5-min Rain = 0
KWE2 151826Z 33001KT 36/04 A2986 RMK A01 T03560039  RH  014%=      5-min Rain = 0
KWE2 151827Z 33005KT 36/04 A2986 RMK A01 T03580042  RH  014%=      5-min Rain = 0
KWE2 151828Z 33013KT 36/04 A2986 RMK A01 T03620038  RH  013%=      5-min Rain = 0
KWE2 151829Z 32011KT 37/03 A2986 RMK A01 T03650033  RH  013%=      5-min Rain = 0
KWE2 151830Z 32011KT 36/03 A2986 RMK A01 T03640030  RH  012%=      5-min Rain = 0
KWE2 151831Z 32011KT 36/03 A2986 RMK A01 T03620031  RH  013%=      5-min Rain = 0
KWE2 151832Z 32009KT 36/03 A2986 RMK A01 T03620033  RH  013%=      5-min Rain = 0
KWE2 151833Z 34006KT 36/03 A2986 RMK A01 T03590032  RH  013%=      5-min Rain = 0
KWE2 151834Z 34004KT 36/03 A2986 RMK A01 T03570033  RH  013%=      5-min Rain = 0
KWE2 151835Z 33008KT 36/03 A2986 RMK A01 T03570033  RH  013%=      5-min Rain = 0
KWE2 151836Z 31007KT 36/03 A2986 RMK A01 T03570032  RH  013%=      5-min Rain = 0
KWE2 151837Z 32007KT 36/04 A2986 RMK A01 T03580035  RH  013%=      5-min Rain = 0
KWE2 151838Z 30010KT 36/04 A2986 RMK A01 T03620036  RH  013%=      5-min Rain = 0
KWE2 151839Z 32009KT 36/04 A2986 RMK A01 T03630037  RH  013%=      5-min Rain = 0
KWE2 151840Z 35005KT 36/03 A2986 RMK A01 T03580033  RH  013%=      5-min Rain = 0
KWE2 151841Z 31006KT 36/04 A2986 RMK A01 T03560035  RH  014%=      5-min Rain = 0
KWE2 151842Z 34004KT 36/04 A2986 RMK A01 T03560035  RH  013%=      5-min Rain = 0
KWE2 151843Z 35003KT 36/03 A2986 RMK A01 T03570034  RH  013%=      5-min Rain = 0
KWE2 151844Z 03004KT 36/04 A2986 RMK A01 T03570036  RH  013%=      5-min Rain = 0
KWE2 151845Z 04003KT 36/04 A2986 RMK A01 T03590035  RH  013%=      5-min Rain = 0
KWE2 151846Z 36004KT 36/04 A2986 RMK A01 T03600036  RH  013%=      5-min Rain = 0
KWE2 151847Z 32006G11KT 37/04 A2986 RMK A01 T03650039  RH  013%=      5-min Rain = 0
KWE2 151848Z 32008KT 37/03 A2986 RMK A01 T03680027  RH  012%=      5-min Rain = 0
KWE2 151849Z 35008KT 37/03 A2986 RMK A01 T03670026  RH  012%=      5-min Rain = 0
KWE2 151850Z 32010G15KT 37/03 A2985 RMK A01 T03690026  RH  012%=      5-min Rain = 0
KWE2 151851Z 29010KT 37/02 A2986 RMK A01 T03690024  RH  012%=      5-min Rain = 0
KWE2 151852Z 27010KT 37/02 A2986 RMK A01 T03680021  RH  011%=      5-min Rain = 0
KWE2 151853Z 28006KT 37/02 A2986 RMK A01 T03650018  RH  011%=      5-min Rain = 0
KWE2 151854Z 30008KT 36/02 A2985 RMK A01 T03640018  RH  011%=      5-min Rain = 0
KWE2 151855Z 30009KT 37/02 A2985 RMK A01 T03670017  RH  011%=      5-min Rain = 0
KWE2 151856Z 30006KT 37/02 A2985 RMK A01 T03690015  RH  011%=      5-min Rain = 0
KWE2 151857Z 27005KT 37/02 A2985 RMK A01 T03680017  RH  011%=      5-min Rain = 0
KWE2 151858Z 26008KT 37/02 A2985 RMK A01 T03680021  RH  011%=      5-min Rain = 0
KWE2 151859Z 26012KT 37/02 A2985 RMK A01 T03720019  RH  011%=      5-min Rain = 0
KWE2 151900Z 27008KT 38/02 A2985 RMK A01 T03750016  RH  011%=      5-min Rain = 0
KWE2 151901Z 26006KT 37/02 A2985 RMK A01 T03710016  RH  011%=      5-min Rain = 0
KWE2 151902Z 26003KT 37/02 A2985 RMK A01 T03700019  RH  011%=      5-min Rain = 0
KWE2 151903Z 25004KT 37/02 A2985 RMK A01 T03710017  RH  011%=      5-min Rain = 0
KWE2 151904Z 22002KT 37/02 A2985 RMK A01 T03710019  RH  011%=      5-min Rain = 0
KWE2 151905Z 34010KT 37/03 A2985 RMK A01 T03710026  RH  012%=      5-min Rain = 0
KWE2 151906Z 30012KT 37/02 A2985 RMK A01 T03740024  RH  011%=      5-min Rain = 0
KWE2 151907Z 32010KT 37/02 A2985 RMK A01 T03720021  RH  011%=      5-min Rain = 0
KWE2 151908Z 32009KT 37/02 A2985 RMK A01 T03680022  RH  012%=      5-min Rain = 0
KWE2 151909Z 32011KT 37/02 A2985 RMK A01 T03690024  RH  012%=      5-min Rain = 0
KWE2 151910Z 32009KT 37/02 A2985 RMK A01 T03700022  RH  011%=      5-min Rain = 0
KWE2 151911Z 31007KT 37/03 A2985 RMK A01 T03690025  RH  012%=      5-min Rain = 0
KWE2 151912Z 30008KT 37/03 A2985 RMK A01 T03710026  RH  012%=      5-min Rain = 0
KWE2 151913Z 30007KT 37/02 A2985 RMK A01 T03720024  RH  011%=      5-min Rain = 0
KWE2 151914Z 31004KT 37/02 A2985 RMK A01 T03710024  RH  012%=      5-min Rain = 0
KWE2 151915Z 32003KT 37/03 A2985 RMK A01 T03720026  RH  012%=      5-min Rain = 0
KWE2 151916Z 30004KT 37/02 A2984 RMK A01 T03710023  RH  011%=      5-min Rain = 0
KWE2 151917Z 31008G13KT 37/03 A2984 RMK A01 T03700026  RH  012%=      5-min Rain = 0
KWE2 151918Z 29011KT 37/02 A2984 RMK A01 T03720024  RH  011%=      5-min Rain = 0
KWE2 151919Z 29011KT 37/03 A2984 RMK A01 T03720025  RH  011%=      5-min Rain = 0
KWE2 151920Z 29011KT 37/02 A2984 RMK A01 T03730024  RH  011%=      5-min Rain = 0
KWE2 151921Z 31012KT 38/03 A2984 RMK A01 T03760025  RH  011%=      5-min Rain = 0
KWE2 151922Z 32012G17KT 38/03 A2984 RMK A01 T03810025  RH  011%=      5-min Rain = 0
KWE2 151923Z 33006KT 38/02 A2984 RMK A01 T03770020  RH  011%=      5-min Rain = 0
KWE2 151924Z 32008KT 37/02 A2984 RMK A01 T03720023  RH  011%=      5-min Rain = 0
KWE2 151925Z 29010KT 38/02 A2984 RMK A01 T03760024  RH  011%=      5-min Rain = 0
KWE2 151926Z 31007KT 38/03 A2984 RMK A01 T03780026  RH  011%=      5-min Rain = 0
KWE2 151927Z 29012KT 38/03 A2984 RMK A01 T03790025  RH  011%=      5-min Rain = 0
KWE2 151928Z 29011KT 38/02 A2984 RMK A01 T03760023  RH  011%=      5-min Rain = 0
KWE2 151929Z 29008KT 38/02 A2984 RMK A01 T03760022  RH  011%=      5-min Rain = 0
KWE2 151930Z 31006KT 37/02 A2984 RMK A01 T03740023  RH  011%=      5-min Rain = 0
KWE2 151931Z 33004KT 37/02 A2984 RMK A01 T03720022  RH  011%=      5-min Rain = 0
KWE2 151932Z 31005G10KT 37/02 A2984 RMK A01 T03700023  RH  011%=      5-min Rain = 0
KWE2 151933Z 31008KT 37/03 A2984 RMK A01 T03720025  RH  012%=      5-min Rain = 0
KWE2 151934Z 31007KT 37/02 A2984 RMK A01 T03740023  RH  011%=      5-min Rain = 0
KWE2 151935Z 31007KT 37/02 A2984 RMK A01 T03730023  RH  011%=      5-min Rain = 0
KWE2 151936Z 28004KT 37/02 A2984 RMK A01 T03710022  RH  011%=      5-min Rain = 0
KWE2 151937Z 27004KT 37/02 A2984 RMK A01 T03680023  RH  012%=      5-min Rain = 0
KWE2 151938Z 31004KT 37/02 A2984 RMK A01 T03670022  RH  012%=      5-min Rain = 0
KWE2 151939Z 31005KT 37/02 A2984 RMK A01 T03660024  RH  012%=      5-min Rain = 0
KWE2 151940Z 25007KT 37/02 A2984 RMK A01 T03670022  RH  012%=      5-min Rain = 0
KWE2 151941Z 25007KT 37/02 A2984 RMK A01 T03680018  RH  011%=      5-min Rain = 0
KWE2 151942Z 24009KT 37/02 A2984 RMK A01 T03670018  RH  011%=      5-min Rain = 0
KWE2 151943Z 23012KT 37/02 A2984 RMK A01 T03670017  RH  011%=      5-min Rain = 0
KWE2 151944Z 23009KT 37/02 A2984 RMK A01 T03680017  RH  011%=      5-min Rain = 0
KWE2 151945Z 23009KT 37/02 A2984 RMK A01 T03680018  RH  011%=      5-min Rain = 0
KWE2 151946Z 22009KT 37/02 A2984 RMK A01 T03670019  RH  011%=      5-min Rain = 0
KWE2 151947Z 22007KT 37/02 A2984 RMK A01 T03670018  RH  011%=      5-min Rain = 0
KWE2 151948Z 21005KT 37/02 A2984 RMK A01 T03660017  RH  011%=      5-min Rain = 0
KWE2 151949Z 20007KT 37/02 A2983 RMK A01 T03670019  RH  011%=      5-min Rain = 0
KWE2 151950Z 21007KT 37/02 A2983 RMK A01 T03670017  RH  011%=      5-min Rain = 0
KWE2 151951Z 20005KT 37/02 A2983 RMK A01 T03670018  RH  011%=      5-min Rain = 0
KWE2 151952Z 19007KT 37/02 A2983 RMK A01 T03660019  RH  011%=      5-min Rain = 0
KWE2 151953Z 20008KT 37/02 A2983 RMK A01 T03680020  RH  011%=      5-min Rain = 0
KWE2 151954Z 19007KT 37/02 A2983 RMK A01 T03690019  RH  011%=      5-min Rain = 0
KWE2 151955Z 20006KT 37/02 A2983 RMK A01 T03690018  RH  011%=      5-min Rain = 0
KWE2 151956Z 21005KT 37/02 A2983 RMK A01 T03680019  RH  011%=      5-min Rain = 0
KWE2 151957Z 22004G9KT 37/03 A2983 RMK A01 T03710025  RH  012%=      5-min Rain = 0
KWE2 151958Z 32011G17KT 38/02 A2983 RMK A01 T03750022  RH  011%=      5-min Rain = 0
KWE2 151959Z 33009KT 38/02 A2983 RMK A01 T03750019  RH  011%=      5-min Rain = 0
KWE2 152000Z 01006KT 38/02 A2983 RMK A01 T03750019  RH  011%=      5-min Rain = 0
KWE2 152001Z 03006KT 37/02 A2983 RMK A01 T03710015  RH  011%=      5-min Rain = 0
KWE2 152002Z 06003KT 37/01 A2983 RMK A01 T03670012  RH  011%=      5-min Rain = 0
KWE2 152003Z 33004G12KT 37/02 A2983 RMK A01 T03650015  RH  011%=      5-min Rain = 0
KWE2 152004Z 28014KT 37/02 A2982 RMK A01 T03670016  RH  011%=      5-min Rain = 0
KWE2 152005Z 25009KT 37/02 A2983 RMK A01 T03700016  RH  011%=      5-min Rain = 0
KWE2 152006Z 25006KT 37/02 A2983 RMK A01 T03690016  RH  011%=      5-min Rain = 0
KWE2 152007Z 25008KT 37/02 A2983 RMK A01 T03680015  RH  011%=      5-min Rain = 0
KWE2 152008Z 27007KT 37/02 A2983 RMK A01 T03680016  RH  011%=      5-min Rain = 0
KWE2 152009Z 29006KT 37/01 A2983 RMK A01 T03690011  RH  011%=      5-min Rain = 0
KWE2 152010Z 28005KT 37/01 A2983 RMK A01 T03670010  RH  011%=      5-min Rain = 0
KWE2 152011Z 29006G11KT 37/01 A2983 RMK A01 T03660012  RH  011%=      5-min Rain = 0
KWE2 152012Z 28010KT 37/01 A2983 RMK A01 T03660012  RH  011%=      5-min Rain = 0
KWE2 152013Z 26008KT 37/01 A2983 RMK A01 T03670010  RH  011%=      5-min Rain = 0
KWE2 152014Z 24007KT 37/01 A2983 RMK A01 T03660010  RH  011%=      5-min Rain = 0
KWE2 152015Z 25007KT 37/01 A2983 RMK A01 T03660009  RH  011%=      5-min Rain = 0
KWE2 152016Z 25008KT 37/01 A2983 RMK A01 T03660008  RH  011%=      5-min Rain = 0
KWE2 152017Z 25008KT 37/01 A2983 RMK A01 T03660008  RH  011%=      5-min Rain = 0
KWE2 152018Z 25008KT 37/01 A2983 RMK A01 T03650008  RH  011%=      5-min Rain = 0
KWE2 152019Z 25008KT 36/01 A2983 RMK A01 T03640009  RH  011%=      5-min Rain = 0
KWE2 152020Z 25008KT 37/01 A2983 RMK A01 T03650009  RH  011%=      5-min Rain = 0
KWE2 152021Z 23006KT 37/01 A2983 RMK A01 T03660010  RH  011%=      5-min Rain = 0
KWE2 152022Z 22009KT 37/01 A2983 RMK A01 T03660013  RH  011%=      5-min Rain = 0
KWE2 152023Z 22010KT 37/01 A2983 RMK A01 T03660009  RH  011%=      5-min Rain = 0
KWE2 152024Z 23010KT 37/00 A2983 RMK A01 T03670004  RH  010%=      5-min Rain = 0
KWE2 152025Z 24010KT 37/00 A2983 RMK A01 T03660003  RH  010%=      5-min Rain = 0
KWE2 152026Z 23008KT 37/00 A2983 RMK A01 T03650004  RH  010%=      5-min Rain = 0
KWE2 152027Z 25008KT 37/00 A2983 RMK A01 T03650004  RH  010%=      5-min Rain = 0
KWE2 152028Z 24008KT 36/00 A2983 RMK A01 T03640002  RH  010%=      5-min Rain = 0
KWE2 152029Z 23008KT 36/00 A2983 RMK A01 T03640004  RH  010%=      5-min Rain = 0
KWE2 152030Z 24009KT 37/01 A2983 RMK A01 T03650005  RH  010%=      5-min Rain = 0
KWE2 152031Z 22007KT 36/01 A2983 RMK A01 T03640005  RH  010%=      5-min Rain = 0
KWE2 152032Z 23009KT 37/01 A2983 RMK A01 T03650011  RH  011%=      5-min Rain = 0
KWE2 152033Z 22011KT 37/01 A2983 RMK A01 T03660012  RH  011%=      5-min Rain = 0
KWE2 152034Z 21012KT 37/01 A2983 RMK A01 T03660005  RH  010%=      5-min Rain = 0
KWE2 152035Z 22009G14KT 37/01 A2983 RMK A01 T03650006  RH  010%=      5-min Rain = 0
KWE2 152036Z 23012KT 37/01 A2982 RMK A01 T03660009  RH  011%=      5-min Rain = 0
KWE2 152037Z 24016KT 37/00 A2982 RMK A01 T03670004  RH  010%=      5-min Rain = 0
KWE2 152038Z 25014KT 37/00 A2983 RMK A01 T03660003  RH  010%=      5-min Rain = 0
KWE2 152039Z 24011KT 37/00 A2983 RMK A01 T03660002  RH  010%=      5-min Rain = 0
KWE2 152040Z 24011KT 37/00 A2983 RMK A01 T03670003  RH  010%=      5-min Rain = 0
KWE2 152041Z 24010KT 37/01 A2983 RMK A01 T03680005  RH  010%=      5-min Rain = 0
KWE2 152042Z 22009KT 37/01 A2983 RMK A01 T03690009  RH  010%=      5-min Rain = 0
KWE2 152043Z 22010KT 37/01 A2983 RMK A01 T03700011  RH  011%=      5-min Rain = 0
KWE2 152044Z 21012KT 37/01 A2982 RMK A01 T03680014  RH  011%=      5-min Rain = 0
KWE2 152045Z 21013KT 37/02 A2982 RMK A01 T03680015  RH  011%=      5-min Rain = 0
KWE2 152046Z 21013KT 37/02 A2982 RMK A01 T03680019  RH  011%=      5-min Rain = 0
KWE2 152047Z 21013KT 37/02 A2982 RMK A01 T03720015  RH  011%=      5-min Rain = 0
KWE2 152048Z 19013KT 37/01 A2982 RMK A01 T03720014  RH  011%=      5-min Rain = 0
KWE2 152049Z 20013KT 37/01 A2982 RMK A01 T03720010  RH  010%=      5-min Rain = 0
KWE2 152050Z 20012KT 37/01 A2982 RMK A01 T03700011  RH  011%=      5-min Rain = 0
KWE2 152051Z 20012KT 37/01 A2982 RMK A01 T03690012  RH  011%=      5-min Rain = 0
KWE2 152052Z 19011KT 37/01 A2982 RMK A01 T03680012  RH  011%=      5-min Rain = 0
KWE2 152053Z 19011KT 37/01 A2982 RMK A01 T03670010  RH  011%=      5-min Rain = 0
KWE2 152054Z 19012KT 37/01 A2982 RMK A01 T03670008  RH  010%=      5-min Rain = 0
KWE2 152055Z 19008KT 37/01 A2982 RMK A01 T03670008  RH  010%=      5-min Rain = 0
KWE2 152056Z 19008KT 37/01 A2982 RMK A01 T03710014  RH  011%=      5-min Rain = 0
KWE2 152057Z 18009KT 38/02 A2982 RMK A01 T03760018  RH  011%=      5-min Rain = 0
KWE2 152058Z 19010KT 38/02 A2982 RMK A01 T03800016  RH  010%=      5-min Rain = 0
KWE2 152059Z 19010KT 38/02 A2982 RMK A01 T03780016  RH  010%=      5-min Rain = 0
KWE2 152100Z 19010KT 38/02 A2982 RMK A01 T03760015  RH  011%=      5-min Rain = 0
KWE2 152101Z 19012KT 37/01 A2982 RMK A01 T03740013  RH  010%=      5-min Rain = 0
KWE2 152102Z 21009KT 37/02 A2982 RMK A01 T03720015  RH  011%=      5-min Rain = 0
KWE2 152103Z 20009KT 37/02 A2982 RMK A01 T03730017  RH  011%=      5-min Rain = 0
KWE2 152104Z 19009KT 37/01 A2982 RMK A01 T03720012  RH  011%=      5-min Rain = 0
KWE2 152105Z 21011KT 37/02 A2982 RMK A01 T03710018  RH  011%=      5-min Rain = 0
KWE2 152106Z 22010KT 37/01 A2982 RMK A01 T03710014  RH  011%=      5-min Rain = 0
KWE2 152107Z 22007KT 37/01 A2982 RMK A01 T03710013  RH  011%=      5-min Rain = 0
KWE2 152108Z 22008KT 37/02 A2982 RMK A01 T03710015  RH  011%=      5-min Rain = 0
KWE2 152109Z 24008KT 37/02 A2982 RMK A01 T03710019  RH  011%=      5-min Rain = 0
KWE2 152110Z 21010KT 37/02 A2982 RMK A01 T03730023  RH  011%=      5-min Rain = 0
KWE2 152111Z 20012KT 37/02 A2981 RMK A01 T03730017  RH  011%=      5-min Rain = 0
KWE2 152112Z 20012KT 37/02 A2981 RMK A01 T03710018  RH  011%=      5-min Rain = 0
KWE2 152113Z 21013KT 37/02 A2981 RMK A01 T03720018  RH  011%=      5-min Rain = 0
KWE2 152114Z 22013KT 37/02 A2981 RMK A01 T03730017  RH  011%=      5-min Rain = 0
KWE2 152115Z 20013KT 37/02 A2981 RMK A01 T03740020  RH  011%=      5-min Rain = 0
KWE2 152116Z 21012KT 38/02 A2981 RMK A01 T03750016  RH  011%=      5-min Rain = 0
KWE2 152117Z 22014KT 37/02 A2981 RMK A01 T03730019  RH  011%=      5-min Rain = 0
KWE2 152118Z 22018KT 37/02 A2981 RMK A01 T03720018  RH  011%=      5-min Rain = 0
KWE2 152119Z 24013KT 37/02 A2981 RMK A01 T03690016  RH  011%=      5-min Rain = 0
KWE2 152120Z 24011KT 37/02 A2981 RMK A01 T03710018  RH  011%=      5-min Rain = 0
KWE2 152121Z 24010KT 37/02 A2981 RMK A01 T03710017  RH  011%=      5-min Rain = 0
KWE2 152122Z 23008KT 37/02 A2981 RMK A01 T03710018  RH  011%=      5-min Rain = 0
KWE2 152123Z 24005KT 37/02 A2981 RMK A01 T03700015  RH  011%=      5-min Rain = 0
KWE2 152124Z 24006KT 37/02 A2981 RMK A01 T03690017  RH  011%=      5-min Rain = 0
KWE2 152125Z 23007KT 37/01 A2981 RMK A01 T03680013  RH  011%=      5-min Rain = 0
KWE2 152126Z 21008KT 37/01 A2981 RMK A01 T03690014  RH  011%=      5-min Rain = 0
KWE2 152127Z 21007KT 37/01 A2981 RMK A01 T03710014  RH  011%=      5-min Rain = 0
KWE2 152128Z 21007KT 37/01 A2981 RMK A01 T03710014  RH  011%=      5-min Rain = 0
KWE2 152129Z 20006KT 37/02 A2981 RMK A01 T03710016  RH  011%=      5-min Rain = 0
KWE2 152130Z 22004KT 37/02 A2981 RMK A01 T03720017  RH  011%=      5-min Rain = 0
KWE2 152131Z 27002KT 37/02 A2981 RMK A01 T03730015  RH  011%=      5-min Rain = 0
KWE2 152132Z 34001KT 37/01 A298 RMK A01 T03740014  RH  011%=      5-min Rain = 0
KWE2 152133Z 27009G14KT 38/02 A298 RMK A01 T03750018  RH  011%=      5-min Rain = 0
KWE2 152134Z 26013KT 38/02 A298 RMK A01 T03820021  RH  011%=      5-min Rain = 0
KWE2 152135Z 25010KT 38/02 A298 RMK A01 T03840020  RH  010%=      5-min Rain = 0
KWE2 152136Z 25008KT 38/02 A298 RMK A01 T03810019  RH  011%=      5-min Rain = 0
KWE2 152137Z 26010KT 38/02 A298 RMK A01 T03800020  RH  011%=      5-min Rain = 0
KWE2 152138Z 27008KT 38/02 A298 RMK A01 T03800021  RH  011%=      5-min Rain = 0
KWE2 152139Z 26006KT 38/02 A298 RMK A01 T03820020  RH  011%=      5-min Rain = 0
KWE2 152140Z 23013KT 38/02 A298 RMK A01 T03800022  RH  011%=      5-min Rain = 0
KWE2 152141Z 22013KT 38/03 A298 RMK A01 T03830025  RH  011%=      5-min Rain = 0
KWE2 152142Z 21013KT 39/02 A298 RMK A01 T03850023  RH  011%=      5-min Rain = 0
KWE2 152143Z 22013G18KT 39/03 A298 RMK A01 T03850025  RH  011%=      5-min Rain = 0
KWE2 152144Z 24015KT 38/02 A298 RMK A01 T03840023  RH  011%=      5-min Rain = 0
KWE2 152145Z 24013KT 38/02 A298 RMK A01 T03830020  RH  010%=      5-min Rain = 0
KWE2 152146Z 23014KT 39/02 A298 RMK A01 T03850022  RH  011%=      5-min Rain = 0
KWE2 152147Z 22014KT 39/02 A298 RMK A01 T03860020  RH  010%=      5-min Rain = 0
KWE2 152148Z 25013KT 39/02 A298 RMK A01 T03850021  RH  010%=      5-min Rain = 0
KWE2 152149Z 26012KT 39/02 A298 RMK A01 T03850019  RH  010%=      5-min Rain = 0
KWE2 152150Z 26012KT 38/02 A298 RMK A01 T03830019  RH  010%=      5-min Rain = 0
KWE2 152151Z 25012KT 38/02 A298 RMK A01 T03820020  RH  011%=      5-min Rain = 0
KWE2 152152Z 26013G18KT 38/02 A298 RMK A01 T03810019  RH  011%=      5-min Rain = 0
KWE2 152153Z 26011KT 38/02 A298 RMK A01 T03780018  RH  011%=      5-min Rain = 0
KWE2 152154Z 26011KT 37/02 A298 RMK A01 T03740018  RH  011%=      5-min Rain = 0
KWE2 152155Z 27009KT 37/02 A298 RMK A01 T03730018  RH  011%=      5-min Rain = 0
KWE2 152156Z 28006KT 37/02 A298 RMK A01 T03720017  RH  011%=      5-min Rain = 0
KWE2 152157Z 28007KT 37/02 A298 RMK A01 T03730021  RH  011%=      5-min Rain = 0
KWE2 152158Z 26010KT 38/02 A2979 RMK A01 T03760021  RH  011%=      5-min Rain = 0
KWE2 152159Z 25012G18KT 38/02 A2979 RMK A01 T03770022  RH  011%=      5-min Rain = 0
KWE2 152200Z 22013KT 38/02 A2979 RMK A01 T03810024  RH  011%=      5-min Rain = 0
KWE2 152201Z 24012KT 38/02 A2979 RMK A01 T03810022  RH  011%=      5-min Rain = 0
KWE2 152202Z 23012KT 38/03 A2979 RMK A01 T03800025  RH  011%=      5-min Rain = 0
KWE2 152203Z 24014KT 39/03 A2979 RMK A01 T03850028  RH  011%=      5-min Rain = 0
KWE2 152204Z 23015KT 39/02 A2979 RMK A01 T03870023  RH  010%=      5-min Rain = 0
KWE2 152205Z 24014KT 39/02 A2979 RMK A01 T03850023  RH  011%=      5-min Rain = 0
KWE2 152206Z 24016KT 39/02 A2979 RMK A01 T03850023  RH  011%=      5-min Rain = 0
KWE2 152207Z 24015KT 38/02 A2979 RMK A01 T03840021  RH  010%=      5-min Rain = 0
KWE2 152208Z 23011KT 38/02 A2979 RMK A01 T03830023  RH  011%=      5-min Rain = 0
KWE2 152209Z 25016G22KT 39/03 A2979 RMK A01 T03860025  RH  011%=      5-min Rain = 0
KWE2 152210Z 23015G21KT 39/03 A2979 RMK A01 T03890025  RH  011%=      5-min Rain = 0
KWE2 152211Z 24011KT 39/02 A2979 RMK A01 T03870024  RH  011%=      5-min Rain = 0
KWE2 152212Z 24010KT 39/02 A2979 RMK A01 T03850023  RH  011%=      5-min Rain = 0
KWE2 152213Z 24009KT 38/02 A2979 RMK A01 T03840019  RH  010%=      5-min Rain = 0
KWE2 152214Z 24012KT 38/02 A2979 RMK A01 T03810022  RH  011%=      5-min Rain = 0
KWE2 152215Z 25013KT 38/02 A2979 RMK A01 T03790019  RH  011%=      5-min Rain = 0
KWE2 152216Z 22015KT 38/02 A2979 RMK A01 T03780023  RH  011%=      5-min Rain = 0
KWE2 152217Z 22013KT 38/02 A2979 RMK A01 T03790022  RH  011%=      5-min Rain = 0
KWE2 152218Z 22014KT 38/02 A2979 RMK A01 T03780020  RH  011%=      5-min Rain = 0
KWE2 152219Z 22012KT 38/02 A2979 RMK A01 T03760020  RH  011%=      5-min Rain = 0
KWE2 152220Z 21013KT 38/02 A2979 RMK A01 T03770021  RH  011%=      5-min Rain = 0
KWE2 152221Z 22013KT 38/02 A2979 RMK A01 T03790021  RH  011%=      5-min Rain = 0
KWE2 152222Z 21012KT 38/02 A2979 RMK A01 T03780022  RH  011%=      5-min Rain = 0
KWE2 152223Z 22012KT 38/02 A2979 RMK A01 T03790023  RH  011%=      5-min Rain = 0
KWE2 152224Z 22014KT 38/02 A2979 RMK A01 T03800023  RH  011%=      5-min Rain = 0
KWE2 152225Z 20011KT 38/02 A2979 RMK A01 T03780024  RH  011%=      5-min Rain = 0
KWE2 152226Z 21010KT 38/02 A2979 RMK A01 T03780023  RH  011%=      5-min Rain = 0
KWE2 152227Z 23011KT 38/02 A2979 RMK A01 T03790024  RH  011%=      5-min Rain = 0
KWE2 152228Z 23012KT 38/02 A2979 RMK A01 T03800024  RH  011%=      5-min Rain = 0
KWE2 152229Z 22008KT 38/02 A2979 RMK A01 T03780021  RH  011%=      5-min Rain = 0
KWE2 152230Z 24012KT 38/02 A2978 RMK A01 T03780023  RH  011%=      5-min Rain = 0
KWE2 152231Z 25013KT 38/03 A2978 RMK A01 T03800026  RH  011%=      5-min Rain = 0
KWE2 152232Z 25015KT 38/02 A2978 RMK A01 T03840021  RH  011%=      5-min Rain = 0
KWE2 152233Z 25017KT 38/02 A2978 RMK A01 T03840022  RH  011%=      5-min Rain = 0
KWE2 152234Z 24017KT 38/02 A2978 RMK A01 T03820021  RH  011%=      5-min Rain = 0
KWE2 152235Z 24016KT 38/02 A2978 RMK A01 T03830020  RH  011%=      5-min Rain = 0
KWE2 152236Z 25013KT 38/02 A2978 RMK A01 T03830019  RH  010%=      5-min Rain = 0
KWE2 152237Z 26012KT 38/02 A2978 RMK A01 T03830022  RH  011%=      5-min Rain = 0
KWE2 152238Z 26015KT 38/02 A2978 RMK A01 T03840020  RH  010%=      5-min Rain = 0
KWE2 152239Z 26015KT 38/02 A2978 RMK A01 T03810019  RH  010%=      5-min Rain = 0
KWE2 152240Z 25013KT 38/02 A2978 RMK A01 T03800019  RH  011%=      5-min Rain = 0
KWE2 152241Z 24013KT 38/02 A2978 RMK A01 T03780020  RH  011%=      5-min Rain = 0
KWE2 152242Z 25012KT 38/02 A2978 RMK A01 T03770018  RH  011%=      5-min Rain = 0
KWE2 152243Z 25009KT 38/02 A2978 RMK A01 T03750017  RH  011%=      5-min Rain = 0
KWE2 152244Z 27009KT 37/02 A2978 RMK A01 T03740019  RH  011%=      5-min Rain = 0
KWE2 152245Z 26008G14KT 37/02 A2978 RMK A01 T03740020  RH  011%=      5-min Rain = 0
KWE2 152246Z 25012KT 38/02 A2978 RMK A01 T03770019  RH  011%=      5-min Rain = 0
KWE2 152247Z 26009KT 38/02 A2978 RMK A01 T03750017  RH  011%=      5-min Rain = 0
KWE2 152248Z 25006KT 37/02 A2978 RMK A01 T03730016  RH  011%=      5-min Rain = 0
KWE2 152249Z 25008KT 37/02 A2978 RMK A01 T03730020  RH  011%=      5-min Rain = 0
KWE2 152250Z 26010KT 38/02 A2977 RMK A01 T03770021  RH  011%=      5-min Rain = 0
KWE2 152251Z 26008KT 38/02 A2977 RMK A01 T03780017  RH  011%=      5-min Rain = 0
KWE2 152252Z 26006KT 38/02 A2977 RMK A01 T03750018  RH  011%=      5-min Rain = 0
KWE2 152253Z 25005KT 38/02 A2977 RMK A01 T03760020  RH  011%=      5-min Rain = 0
KWE2 152254Z 22005KT 38/02 A2977 RMK A01 T03760021  RH  011%=      5-min Rain = 0
KWE2 152255Z 22005KT 38/02 A2977 RMK A01 T03770022  RH  011%=      5-min Rain = 0
KWE2 152256Z 23008G13KT 38/02 A2977 RMK A01 T03760023  RH  011%=      5-min Rain = 0
KWE2 152257Z 23009KT 38/02 A2977 RMK A01 T03750019  RH  011%=      5-min Rain = 0
KWE2 152258Z 23014G24KT 37/02 A2977 RMK A01 T03720018  RH  011%=      5-min Rain = 0
KWE2 152259Z 24010KT 37/02 A2977 RMK A01 T03720017  RH  011%=      5-min Rain = 0
KWE2 152300Z 23010KT 37/02 A2977 RMK A01 T03730020  RH  011%=      5-min Rain = 0
KWE2 152301Z 23013KT 38/02 A2977 RMK A01 T03760021  RH  011%=      5-min Rain = 0
KWE2 152302Z 22012KT 38/02 A2977 RMK A01 T03770020  RH  011%=      5-min Rain = 0
KWE2 152303Z 21012KT 38/02 A2977 RMK A01 T03760021  RH  011%=      5-min Rain = 0
KWE2 152304Z 21010KT 38/02 A2977 RMK A01 T03780023  RH  011%=      5-min Rain = 0
KWE2 152305Z 21012KT 38/02 A2977 RMK A01 T03800022  RH  011%=      5-min Rain = 0
KWE2 152306Z 20011KT 38/02 A2977 RMK A01 T03770019  RH  011%=      5-min Rain = 0
KWE2 152307Z 20016KT 38/02 A2976 RMK A01 T03760022  RH  011%=      5-min Rain = 0
KWE2 152308Z 21013G18KT 38/02 A2976 RMK A01 T03760022  RH  011%=      5-min Rain = 0
KWE2 152309Z 22012KT 38/03 A2976 RMK A01 T03790027  RH  011%=      5-min Rain = 0
KWE2 152310Z 21014KT 38/03 A2976 RMK A01 T03810026  RH  011%=      5-min Rain = 0
KWE2 152311Z 20014KT 38/02 A2976 RMK A01 T03810024  RH  011%=      5-min Rain = 0
KWE2 152312Z 20012KT 38/02 A2976 RMK A01 T03800023  RH  011%=      5-min Rain = 0
KWE2 152313Z 21010G16KT 38/02 A2976 RMK A01 T03790023  RH  011%=      5-min Rain = 0
KWE2 152314Z 22012KT 38/02 A2976 RMK A01 T03780021  RH  011%=      5-min Rain = 0
KWE2 152315Z 24011KT 38/02 A2976 RMK A01 T03780021  RH  011%=      5-min Rain = 0
KWE2 152316Z 24011KT 38/02 A2976 RMK A01 T03770019  RH  011%=      5-min Rain = 0
KWE2 152317Z 24011KT 38/02 A2976 RMK A01 T03760020  RH  011%=      5-min Rain = 0
KWE2 152318Z 23012KT 38/02 A2976 RMK A01 T03770021  RH  011%=      5-min Rain = 0
KWE2 152319Z 24014G21KT 38/02 A2976 RMK A01 T03780024  RH  011%=      5-min Rain = 0
KWE2 152320Z 23013KT 38/03 A2976 RMK A01 T03810026  RH  011%=      5-min Rain = 0
KWE2 152321Z 23015KT 38/03 A2976 RMK A01 T03810026  RH  011%=      5-min Rain = 0
KWE2 152322Z 24012KT 38/03 A2976 RMK A01 T03800030  RH  011%=      5-min Rain = 0
KWE2 152323Z 24015KT 38/03 A2976 RMK A01 T03830029  RH  011%=      5-min Rain = 0
KWE2 152324Z 25014KT 38/03 A2976 RMK A01 T03830025  RH  011%=      5-min Rain = 0
KWE2 152325Z 25015KT 38/03 A2976 RMK A01 T03810025  RH  011%=      5-min Rain = 0
KWE2 152326Z 26016KT 38/02 A2976 RMK A01 T03810024  RH  011%=      5-min Rain = 0
KWE2 152327Z 25017KT 38/02 A2976 RMK A01 T03810020  RH  011%=      5-min Rain = 0
KWE2 152328Z 25018KT 38/02 A2976 RMK A01 T03790022  RH  011%=      5-min Rain = 0
KWE2 152329Z 25014KT 38/02 A2976 RMK A01 T03780020  RH  011%=      5-min Rain = 0
KWE2 152330Z 25009KT 38/02 A2976 RMK A01 T03750018  RH  011%=      5-min Rain = 0
KWE2 152331Z 25011KT 38/02 A2976 RMK A01 T03750022  RH  011%=      5-min Rain = 0
KWE2 152332Z 24016KT 38/02 A2976 RMK A01 T03770024  RH  011%=      5-min Rain = 0
KWE2 152333Z 24017KT 38/02 A2976 RMK A01 T03780023  RH  011%=      5-min Rain = 0
KWE2 152334Z 24017KT 38/02 A2976 RMK A01 T03760024  RH  011%=      5-min Rain = 0
KWE2 152335Z 23018G23KT 38/02 A2976 RMK A01 T03760023  RH  011%=      5-min Rain = 0
KWE2 152336Z 23018G24KT 38/02 A2976 RMK A01 T03750023  RH  011%=      5-min Rain = 0
KWE2 152337Z 23017KT 38/02 A2976 RMK A01 T03750022  RH  011%=      5-min Rain = 0
KWE2 152338Z 23016KT 37/02 A2976 RMK A01 T03740020  RH  011%=      5-min Rain = 0
KWE2 152339Z 23013KT 37/02 A2976 RMK A01 T03720021  RH  011%=      5-min Rain = 0
KWE2 152340Z 22013KT 37/02 A2976 RMK A01 T03730023  RH  011%=      5-min Rain = 0
KWE2 152341Z 22012KT 37/02 A2976 RMK A01 T03730023  RH  011%=      5-min Rain = 0
KWE2 152342Z 21012KT 37/02 A2976 RMK A01 T03730022  RH  011%=      5-min Rain = 0
KWE2 152343Z 21012KT 37/02 A2976 RMK A01 T03730024  RH  011%=      5-min Rain = 0
KWE2 152344Z 21014KT 37/02 A2976 RMK A01 T03720024  RH  011%=      5-min Rain = 0
KWE2 152345Z 21013KT 37/02 A2976 RMK A01 T03720023  RH  011%=      5-min Rain = 0
KWE2 152346Z 22011KT 37/03 A2976 RMK A01 T03720026  RH  012%=      5-min Rain = 0
KWE2 152347Z 22013KT 37/03 A2976 RMK A01 T03740026  RH  012%=      5-min Rain = 0
KWE2 152348Z 22011KT 37/02 A2976 RMK A01 T03740024  RH  011%=      5-min Rain = 0
KWE2 152349Z 22009KT 37/03 A2976 RMK A01 T03720025  RH  012%=      5-min Rain = 0
KWE2 152350Z 22010KT 37/03 A2976 RMK A01 T03740028  RH  012%=      5-min Rain = 0
KWE2 152351Z 22010KT 38/03 A2976 RMK A01 T03760026  RH  011%=      5-min Rain = 0
KWE2 152352Z 21010KT 38/02 A2976 RMK A01 T03750024  RH  011%=      5-min Rain = 0
KWE2 152353Z 22009KT 37/03 A2976 RMK A01 T03730026  RH  012%=      5-min Rain = 0
KWE2 152354Z 21008KT 37/03 A2975 RMK A01 T03730027  RH  012%=      5-min Rain = 0
KWE2 152355Z 21007KT 37/03 A2975 RMK A01 T03730028  RH  012%=      5-min Rain = 0
KWE2 152356Z 21010KT 37/03 A2975 RMK A01 T03740030  RH  012%=      5-min Rain = 0
KWE2 152357Z 22011KT 38/03 A2975 RMK A01 T03750027  RH  012%=      5-min Rain = 0
KWE2 152358Z 22011KT 37/02 A2975 RMK A01 T03730024  RH  011%=      5-min Rain = 0
KWE2 152359Z 22009KT 37/03 A2975 RMK A01 T03710025  RH  012%=      5-min Rain = 0
KWE2 160000Z 22008KT 37/03 A2975 RMK A01 T03710027  RH  012%=      5-min Rain = 0
KWE2 160001Z 22009KT 37/03 A2976 RMK A01 T03730029  RH  012%=      5-min Rain = 0
KWE2 160002Z 22009KT 37/03 A2976 RMK A01 T03730029  RH  012%=      5-min Rain = 0
KWE2 160003Z 21009KT 37/03 A2976 RMK A01 T03730031  RH  012%=      5-min Rain = 0
KWE2 160004Z 23011KT 37/03 A2976 RMK A01 T03730030  RH  012%=      5-min Rain = 0
KWE2 160005Z 21011KT 37/03 A2976 RMK A01 T03720031  RH  012%=      5-min Rain = 0
KWE2 160006Z 22011KT 37/03 A2976 RMK A01 T03720031  RH  012%=      5-min Rain = 0
KWE2 160007Z 22013G18KT 37/03 A2976 RMK A01 T03720031  RH  012%=      5-min Rain = 0
KWE2 160008Z 24010KT 37/03 A2976 RMK A01 T03720033  RH  012%=      5-min Rain = 0
KWE2 160009Z 22012KT 37/03 A2976 RMK A01 T03730032  RH  012%=      5-min Rain = 0
KWE2 160010Z 23013KT 37/03 A2976 RMK A01 T03730031  RH  012%=      5-min Rain = 0
KWE2 160011Z 24020KT 37/03 A2976 RMK A01 T03730031  RH  012%=      5-min Rain = 0
KWE2 160012Z 22018KT 37/03 A2976 RMK A01 T03710032  RH  012%=      5-min Rain = 0
KWE2 160013Z 22015KT 37/03 A2976 RMK A01 T03700032  RH  012%=      5-min Rain = 0
KWE2 160014Z 22015KT 37/03 A2976 RMK A01 T03700033  RH  012%=      5-min Rain = 0
KWE2 160015Z 22015KT 37/03 A2976 RMK A01 T03690034  RH  012%=      5-min Rain = 0
KWE2 160016Z 22013KT 37/03 A2976 RMK A01 T03670034  RH  013%=      5-min Rain = 0
KWE2 160017Z 23012KT 37/04 A2976 RMK A01 T03660036  RH  013%=      5-min Rain = 0
KWE2 160018Z 23013KT 37/04 A2976 RMK A01 T03650037  RH  013%=      5-min Rain = 0
KWE2 160019Z 22012KT 36/04 A2976 RMK A01 T03630035  RH  013%=      5-min Rain = 0
KWE2 160020Z 23012KT 36/03 A2976 RMK A01 T03610034  RH  013%=      5-min Rain = 0
KWE2 160021Z 22012KT 36/04 A2976 RMK A01 T03610035  RH  013%=      5-min Rain = 0
KWE2 160022Z 23012KT 36/04 A2976 RMK A01 T03610035  RH  013%=      5-min Rain = 0
KWE2 160023Z 23013KT 36/04 A2976 RMK A01 T03610035  RH  013%=      5-min Rain = 0
KWE2 160024Z 23013KT 36/04 A2976 RMK A01 T03620036  RH  013%=      5-min Rain = 0
KWE2 160025Z 24011KT 36/04 A2976 RMK A01 T03630037  RH  013%=      5-min Rain = 0
KWE2 160026Z 24012KT 36/04 A2976 RMK A01 T03630035  RH  013%=      5-min Rain = 0
KWE2 160027Z 24011KT 36/04 A2976 RMK A01 T03630036  RH  013%=      5-min Rain = 0
KWE2 160028Z 23009KT 36/04 A2976 RMK A01 T03640038  RH  013%=      5-min Rain = 0
KWE2 160029Z 23009KT 36/04 A2976 RMK A01 T03640040  RH  013%=      5-min Rain = 0
KWE2 160030Z 23012KT 37/04 A2976 RMK A01 T03650039  RH  013%=      5-min Rain = 0
KWE2 160031Z 24014KT 37/04 A2976 RMK A01 T03660036  RH  013%=      5-min Rain = 0
KWE2 160032Z 23014KT 37/03 A2976 RMK A01 T03650031  RH  012%=      5-min Rain = 0
KWE2 160033Z 23014KT 37/03 A2976 RMK A01 T03650031  RH  012%=      5-min Rain = 0
KWE2 160034Z 23014KT 37/03 A2976 RMK A01 T03660031  RH  012%=      5-min Rain = 0
KWE2 160035Z 23016KT 37/03 A2976 RMK A01 T03660030  RH  012%=      5-min Rain = 0
KWE2 160036Z 23016KT 37/03 A2976 RMK A01 T03660029  RH  012%=      5-min Rain = 0
KWE2 160037Z 23016KT 37/03 A2976 RMK A01 T03660027  RH  012%=      5-min Rain = 0
KWE2 160038Z 23018KT 37/03 A2976 RMK A01 T03650025  RH  012%=      5-min Rain = 0
KWE2 160039Z 23017KT 36/03 A2976 RMK A01 T03640026  RH  012%=      5-min Rain = 0
KWE2 160040Z 23016KT 36/03 A2976 RMK A01 T03630026  RH  012%=      5-min Rain = 0
KWE2 160041Z 23015KT 36/03 A2976 RMK A01 T03630025  RH  012%=      5-min Rain = 0
KWE2 160042Z 23014KT 36/03 A2976 RMK A01 T03630026  RH  012%=      5-min Rain = 0
KWE2 160043Z 23015KT 36/03 A2976 RMK A01 T03630026  RH  012%=      5-min Rain = 0
KWE2 160044Z 23014KT 36/02 A2976 RMK A01 T03610024  RH  012%=      5-min Rain = 0
KWE2 160045Z 22015KT 36/02 A2976 RMK A01 T03600022  RH  012%=      5-min Rain = 0
KWE2 160046Z 22016G21KT 36/02 A2977 RMK A01 T03600020  RH  012%=      5-min Rain = 0
KWE2 160047Z 23017KT 36/02 A2977 RMK A01 T03600020  RH  012%=      5-min Rain = 0
KWE2 160048Z 24016KT 36/02 A2977 RMK A01 T03610022  RH  012%=      5-min Rain = 0
KWE2 160049Z 24014KT 36/02 A2977 RMK A01 T03610023  RH  012%=      5-min Rain = 0
KWE2 160050Z 24015KT 36/02 A2977 RMK A01 T03610019  RH  012%=      5-min Rain = 0
KWE2 160051Z 24014KT 36/02 A2977 RMK A01 T03600017  RH  012%=      5-min Rain = 0
KWE2 160052Z 24014KT 36/02 A2977 RMK A01 T03610022  RH  012%=      5-min Rain = 0
KWE2 160053Z 23012KT 36/02 A2977 RMK A01 T03600024  RH  012%=      5-min Rain = 0
KWE2 160054Z 23014KT 36/03 A2977 RMK A01 T03590026  RH  012%=      5-min Rain = 0
KWE2 160055Z 23013KT 36/03 A2977 RMK A01 T03580026  RH  013%=      5-min Rain = 0
KWE2 160056Z 24014KT 36/03 A2977 RMK A01 T03580025  RH  012%=      5-min Rain = 0
KWE2 160057Z 24016KT 36/02 A2977 RMK A01 T03580024  RH  012%=      5-min Rain = 0
KWE2 160058Z 24015KT 36/02 A2977 RMK A01 T03570022  RH  012%=      5-min Rain = 0
KWE2 160059Z 24013KT 36/02 A2977 RMK A01 T03560024  RH  012%=      5-min Rain = 0
KWE2 160100Z 24012KT 36/03 A2977 RMK A01 T03560025  RH  013%=      5-min Rain = 0
KWE2 160101Z 24010KT 36/03 A2977 RMK A01 T03550026  RH  013%=      5-min Rain = 0
KWE2 160102Z 24010KT 36/03 A2977 RMK A01 T03550028  RH  013%=      5-min Rain = 0
KWE2 160103Z 24010KT 35/03 A2977 RMK A01 T03540029  RH  013%=      5-min Rain = 0
KWE2 160104Z 24011KT 35/03 A2977 RMK A01 T03530029  RH  013%=      5-min Rain = 0
KWE2 160105Z 24011KT 35/03 A2978 RMK A01 T03520026  RH  013%=      5-min Rain = 0
KWE2 160106Z 24012KT 35/03 A2978 RMK A01 T03520026  RH  013%=      5-min Rain = 0
KWE2 160107Z 24012KT 35/03 A2978 RMK A01 T03510025  RH  013%=      5-min Rain = 0
KWE2 160108Z 24011KT 35/02 A2978 RMK A01 T03500024  RH  013%=      5-min Rain = 0
KWE2 160109Z 24011KT 35/03 A2978 RMK A01 T03500025  RH  013%=      5-min Rain = 0
KWE2 160110Z 24011KT 35/03 A2978 RMK A01 T03500025  RH  013%=      5-min Rain = 0
KWE2 160111Z 24010KT 35/03 A2978 RMK A01 T03500027  RH  013%=      5-min Rain = 0
KWE2 160112Z 24013KT 35/03 A2978 RMK A01 T03490025  RH  013%=      5-min Rain = 0
KWE2 160113Z 24011KT 35/03 A2978 RMK A01 T03480025  RH  013%=      5-min Rain = 0
KWE2 160114Z 24011KT 35/03 A2978 RMK A01 T03480026  RH  013%=      5-min Rain = 0
KWE2 160115Z 24009KT 35/03 A2978 RMK A01 T03470026  RH  013%=      5-min Rain = 0
KWE2 160116Z 24010KT 35/03 A2978 RMK A01 T03460027  RH  013%=      5-min Rain = 0
KWE2 160117Z 24009KT 35/03 A2978 RMK A01 T03460026  RH  013%=      5-min Rain = 0
KWE2 160118Z 24009KT 35/03 A2978 RMK A01 T03450026  RH  014%=      5-min Rain = 0
KWE2 160119Z 24010KT 35/03 A2978 RMK A01 T03450027  RH  014%=      5-min Rain = 0
KWE2 160120Z 24011KT 34/03 A2978 RMK A01 T03440026  RH  013%=      5-min Rain = 0
KWE2 160121Z 24010KT 34/03 A2978 RMK A01 T03440026  RH  014%=      5-min Rain = 0
KWE2 160122Z 25010KT 34/03 A2979 RMK A01 T03440026  RH  014%=      5-min Rain = 0
KWE2 160123Z 25009KT 34/03 A2979 RMK A01 T03430028  RH  014%=      5-min Rain = 0
KWE2 160124Z 25009KT 34/03 A2979 RMK A01 T03420028  RH  014%=      5-min Rain = 0
KWE2 160125Z 25009KT 34/03 A2979 RMK A01 T03400029  RH  014%=      5-min Rain = 0
KWE2 160126Z 25009KT 34/03 A2979 RMK A01 T03390029  RH  014%=      5-min Rain = 0
KWE2 160127Z 25009KT 34/03 A2979 RMK A01 T03370029  RH  014%=      5-min Rain = 0
KWE2 160128Z 26009KT 34/03 A2979 RMK A01 T03370030  RH  015%=      5-min Rain = 0
KWE2 160129Z 26009KT 34/03 A2979 RMK A01 T03360030  RH  015%=      5-min Rain = 0
KWE2 160130Z 26008KT 34/03 A2979 RMK A01 T03350031  RH  015%=      5-min Rain = 0
KWE2 160131Z 26008KT 33/03 A2979 RMK A01 T03340031  RH  015%=      5-min Rain = 0
KWE2 160132Z 26008KT 33/03 A2979 RMK A01 T03330031  RH  015%=      5-min Rain = 0
KWE2 160133Z 26007KT 33/03 A2979 RMK A01 T03330030  RH  015%=      5-min Rain = 0
KWE2 160134Z 27008KT 33/03 A2979 RMK A01 T03320030  RH  015%=      5-min Rain = 0
KWE2 160135Z 27008KT 33/03 A2979 RMK A01 T03320029  RH  015%=      5-min Rain = 0
KWE2 160136Z 29008KT 33/03 A298 RMK A01 T03310029  RH  015%=      5-min Rain = 0
KWE2 160137Z 33009KT 33/03 A298 RMK A01 T03310029  RH  015%=      5-min Rain = 0
KWE2 160138Z 01017G22KT 33/07 A298 RMK A01 T03270072  RH  021%=      5-min Rain = 0
KWE2 160139Z 35016G21KT 31/11 A298 RMK A01 T03130112  RH  029%=      5-min Rain = 0
KWE2 160140Z 35013KT 30/11 A2981 RMK A01 T03030113  RH  031%=      5-min Rain = 0
KWE2 160141Z 35016KT 30/12 A2981 RMK A01 T02990116  RH  032%=      5-min Rain = 0
KWE2 160142Z 35017KT 30/12 A2981 RMK A01 T02970118  RH  033%=      5-min Rain = 0
KWE2 160143Z 00016KT 30/12 A2981 RMK A01 T02950119  RH  034%=      5-min Rain = 0
KWE2 160144Z 01013KT 29/12 A2981 RMK A01 T02940119  RH  034%=      5-min Rain = 0
KWE2 160145Z 02016KT 29/12 A2981 RMK A01 T02940119  RH  034%=      5-min Rain = 0
KWE2 160146Z 02014KT 29/12 A2981 RMK A01 T02940120  RH  034%=      5-min Rain = 0
KWE2 160147Z 02014KT 29/12 A2981 RMK A01 T02920120  RH  034%=      5-min Rain = 0
KWE2 160148Z 01014KT 29/12 A2981 RMK A01 T02910120  RH  035%=      5-min Rain = 0
KWE2 160149Z 01012KT 29/12 A2981 RMK A01 T02900120  RH  035%=      5-min Rain = 0
KWE2 160150Z 02010KT 29/12 A2981 RMK A01 T02880120  RH  035%=      5-min Rain = 0
KWE2 160151Z 01011KT 29/12 A2981 RMK A01 T02870119  RH  035%=      5-min Rain = 0
KWE2 160152Z 02015KT 29/12 A2981 RMK A01 T02860120  RH  036%=      5-min Rain = 0
KWE2 160153Z 04011KT 29/12 A2981 RMK A01 T02860120  RH  036%=      5-min Rain = 0
KWE2 160154Z 03008KT 29/12 A2981 RMK A01 T02860120  RH  036%=      5-min Rain = 0
KWE2 160155Z 01007G12KT 29/12 A2981 RMK A01 T02850121  RH  036%=      5-min Rain = 0
KWE2 160156Z 35009KT 28/12 A2981 RMK A01 T02840121  RH  037%=      5-min Rain = 0
KWE2 160157Z 00013KT 28/12 A2982 RMK A01 T02840122  RH  037%=      5-min Rain = 0
KWE2 160158Z 01015KT 28/12 A2981 RMK A01 T02830122  RH  037%=      5-min Rain = 0
KWE2 160159Z 01015KT 28/12 A2981 RMK A01 T02810122  RH  037%=      5-min Rain = 0
KWE2 160200Z 01018KT 28/12 A2981 RMK A01 T02800121  RH  037%=      5-min Rain = 0
KWE2 160201Z 02016KT 28/12 A2982 RMK A01 T02800121  RH  037%=      5-min Rain = 0
KWE2 160202Z 03016KT 28/12 A2982 RMK A01 T02780120  RH  037%=      5-min Rain = 0
KWE2 160203Z 04016KT 28/12 A2981 RMK A01 T02770120  RH  038%=      5-min Rain = 0
KWE2 160204Z 03013KT 28/12 A2982 RMK A01 T02760120  RH  038%=      5-min Rain = 0
KWE2 160205Z 02013KT 28/12 A2982 RMK A01 T02750119  RH  038%=      5-min Rain = 0
KWE2 160206Z 04015G22KT 27/12 A2982 RMK A01 T02730118  RH  038%=      5-min Rain = 0
KWE2 160207Z 05016G21KT 27/11 A2981 RMK A01 T02710112  RH  037%=      5-min Rain = 0
KWE2 160208Z 04016G21KT 27/11 A2981 RMK A01 T02700110  RH  037%=      5-min Rain = 0
KWE2 160209Z 04016KT 27/11 A2982 RMK A01 T02680107  RH  037%=      5-min Rain = 0
KWE2 160210Z 04016KT 27/11 A2982 RMK A01 T02660106  RH  037%=      5-min Rain = 0
KWE2 160211Z 04017KT 27/11 A2982 RMK A01 T02650107  RH  037%=      5-min Rain = 0
KWE2 160212Z 04016KT 26/11 A2982 RMK A01 T02640106  RH  037%=      5-min Rain = 0
KWE2 160213Z 03015KT 26/11 A2982 RMK A01 T02630106  RH  037%=      5-min Rain = 0
KWE2 160214Z 03014KT 26/11 A2983 RMK A01 T02620106  RH  038%=      5-min Rain = 0
KWE2 160215Z 01015KT 26/11 A2983 RMK A01 T02620106  RH  038%=      5-min Rain = 0
KWE2 160216Z 01015KT 26/11 A2983 RMK A01 T02610106  RH  038%=      5-min Rain = 0
KWE2 160217Z 02012KT 26/11 A2983 RMK A01 T02620107  RH  038%=      5-min Rain = 0
KWE2 160218Z 02012KT 26/11 A2983 RMK A01 T02610106  RH  038%=      5-min Rain = 0
KWE2 160219Z 02013KT 26/11 A2983 RMK A01 T02600106  RH  038%=      5-min Rain = 0
KWE2 160220Z 03013KT 26/11 A2983 RMK A01 T02600106  RH  038%=      5-min Rain = 0
KWE2 160221Z 03012KT 26/11 A2983 RMK A01 T02590105  RH  038%=      5-min Rain = 0
KWE2 160222Z 04011KT 26/10 A2983 RMK A01 T02590104  RH  038%=      5-min Rain = 0
KWE2 160223Z 03009KT 26/10 A2983 RMK A01 T02570103  RH  038%=      5-min Rain = 0
KWE2 160224Z 02011KT 26/10 A2983 RMK A01 T02560104  RH  038%=      5-min Rain = 0
KWE2 160225Z 02010KT 26/10 A2983 RMK A01 T02560104  RH  038%=      5-min Rain = 0
KWE2 160226Z 01009KT 26/10 A2983 RMK A01 T02560104  RH  038%=      5-min Rain = 0
KWE2 160227Z 01008KT 26/10 A2983 RMK A01 T02560104  RH  038%=      5-min Rain = 0
KWE2 160228Z 01008KT 26/10 A2983 RMK A01 T02550104  RH  038%=      5-min Rain = 0
KWE2 160229Z 01008KT 25/10 A2983 RMK A01 T02540104  RH  039%=      5-min Rain = 0
KWE2 160230Z 02009KT 25/10 A2983 RMK A01 T02540104  RH  039%=      5-min Rain = 0
KWE2 160231Z 01007KT 25/10 A2983 RMK A01 T02530103  RH  039%=      5-min Rain = 0
KWE2 160232Z 02006KT 25/10 A2983 RMK A01 T02520103  RH  039%=      5-min Rain = 0
KWE2 160233Z 02007KT 25/10 A2983 RMK A01 T02510103  RH  039%=      5-min Rain = 0
KWE2 160234Z 02008KT 25/10 A2983 RMK A01 T02500103  RH  039%=      5-min Rain = 0
KWE2 160235Z 01008KT 25/10 A2983 RMK A01 T02500103  RH  039%=      5-min Rain = 0
KWE2 160236Z 02008KT 25/10 A2983 RMK A01 T02500103  RH  040%=      5-min Rain = 0
KWE2 160237Z 03007KT 25/10 A2982 RMK A01 T02490103  RH  040%=      5-min Rain = 0
KWE2 160238Z 03007KT 25/10 A2982 RMK A01 T02480103  RH  040%=      5-min Rain = 0
KWE2 160239Z 02008KT 25/10 A2982 RMK A01 T02470103  RH  040%=      5-min Rain = 0
KWE2 160240Z 02008KT 25/10 A2982 RMK A01 T02460103  RH  040%=      5-min Rain = 0
KWE2 160241Z 02007KT 25/10 A2982 RMK A01 T02470103  RH  040%=      5-min Rain = 0
KWE2 160242Z 02007KT 25/10 A2982 RMK A01 T02470103  RH  040%=      5-min Rain = 0
KWE2 160243Z 02006KT 25/10 A2983 RMK A01 T02470103  RH  040%=      5-min Rain = 0
KWE2 160244Z 03007KT 25/10 A2983 RMK A01 T02460103  RH  040%=      5-min Rain = 0
KWE2 160245Z 03007KT 25/10 A2982 RMK A01 T02460103  RH  041%=      5-min Rain = 0
KWE2 160246Z 03007KT 25/10 A2983 RMK A01 T02450103  RH  041%=      5-min Rain = 0
KWE2 160247Z 04007KT 25/10 A2983 RMK A01 T02450103  RH  041%=      5-min Rain = 0
KWE2 160248Z 03007KT 25/10 A2983 RMK A01 T02450103  RH  041%=      5-min Rain = 0
KWE2 160249Z 04006KT 24/10 A2983 RMK A01 T02440102  RH  041%=      5-min Rain = 0
KWE2 160250Z 03006KT 24/10 A2983 RMK A01 T02430102  RH  041%=      5-min Rain = 0
KWE2 160251Z 03006KT 24/10 A2983 RMK A01 T02430103  RH  041%=      5-min Rain = 0
KWE2 160252Z 04006KT 24/10 A2983 RMK A01 T02430103  RH  041%=      5-min Rain = 0
KWE2 160253Z 04005KT 24/10 A2983 RMK A01 T02430103  RH  041%=      5-min Rain = 0
KWE2 160254Z 05004KT 24/10 A2983 RMK A01 T02430103  RH  041%=      5-min Rain = 0
KWE2 160255Z 05004KT 24/10 A2983 RMK A01 T02420103  RH  041%=      5-min Rain = 0
KWE2 160256Z 04005KT 24/10 A2983 RMK A01 T02410103  RH  042%=      5-min Rain = 0
KWE2 160257Z 05005KT 24/10 A2983 RMK A01 T02410103  RH  042%=      5-min Rain = 0
KWE2 160258Z 04005KT 24/10 A2983 RMK A01 T02410103  RH  042%=      5-min Rain = 0
KWE2 160259Z 04007KT 24/10 A2983 RMK A01 T02410103  RH  042%=      5-min Rain = 0
KWE2 160300Z 04007KT 24/10 A2983 RMK A01 T02410103  RH  042%=      5-min Rain = 0
KWE2 160301Z 04007KT 24/10 A2983 RMK A01 T02410103  RH  042%=      5-min Rain = 0
KWE2 160302Z 04008KT 24/10 A2983 RMK A01 T02420103  RH  041%=      5-min Rain = 0
KWE2 160303Z 04007KT 24/10 A2983 RMK A01 T02420103  RH  041%=      5-min Rain = 0
KWE2 160304Z 04006KT 24/10 A2983 RMK A01 T02410103  RH  042%=      5-min Rain = 0
KWE2 160305Z 04005KT 24/10 A2983 RMK A01 T02410103  RH  042%=      5-min Rain = 0
KWE2 160306Z 05005KT 24/10 A2983 RMK A01 T02410103  RH  042%=      5-min Rain = 0
KWE2 160307Z 05005KT 24/10 A2983 RMK A01 T02400103  RH  042%=      5-min Rain = 0
KWE2 160308Z 05005KT 24/10 A2983 RMK A01 T02380102  RH  042%=      5-min Rain = 0
KWE2 160309Z 04006KT 24/10 A2983 RMK A01 T02370102  RH  043%=      5-min Rain = 0
KWE2 160310Z 04006KT 24/10 A2983 RMK A01 T02360102  RH  043%=      5-min Rain = 0
KWE2 160311Z 04006KT 24/10 A2983 RMK A01 T02360103  RH  043%=      5-min Rain = 0
KWE2 160312Z 03006KT 24/10 A2983 RMK A01 T02350102  RH  043%=      5-min Rain = 0
KWE2 160313Z 03006KT 23/10 A2983 RMK A01 T02340102  RH  043%=      5-min Rain = 0
KWE2 160314Z 03006KT 23/10 A2983 RMK A01 T02330102  RH  043%=      5-min Rain = 0
KWE2 160315Z 02006KT 23/10 A2983 RMK A01 T02330103  RH  044%=      5-min Rain = 0
KWE2 160316Z 02006KT 23/10 A2983 RMK A01 T02330102  RH  044%=      5-min Rain = 0
KWE2 160317Z 02006KT 23/10 A2983 RMK A01 T02340103  RH  043%=      5-min Rain = 0
KWE2 160318Z 01006KT 23/10 A2984 RMK A01 T02340103  RH  043%=      5-min Rain = 0
KWE2 160319Z 00006KT 24/10 A2984 RMK A01 T02350103  RH  043%=      5-min Rain = 0
KWE2 160320Z 36006KT 24/10 A2984 RMK A01 T02350103  RH  043%=      5-min Rain = 0
KWE2 160321Z 35006KT 23/10 A2984 RMK A01 T02340103  RH  043%=      5-min Rain = 0
KWE2 160322Z 35005KT 23/10 A2984 RMK A01 T02320102  RH  044%=      5-min Rain = 0
KWE2 160323Z 36007KT 23/10 A2984 RMK A01 T02290101  RH  044%=      5-min Rain = 0
KWE2 160324Z 36007KT 23/10 A2984 RMK A01 T02270101  RH  045%=      5-min Rain = 0
KWE2 160325Z 36008KT 23/10 A2984 RMK A01 T02260101  RH  045%=      5-min Rain = 0
KWE2 160326Z 00008KT 23/10 A2984 RMK A01 T02250102  RH  045%=      5-min Rain = 0
KWE2 160327Z 01009KT 23/10 A2984 RMK A01 T02250102  RH  045%=      5-min Rain = 0
KWE2 160328Z 01008KT 23/10 A2984 RMK A01 T02260102  RH  045%=      5-min Rain = 0
KWE2 160329Z 02008KT 23/10 A2984 RMK A01 T02260102  RH  045%=      5-min Rain = 0
KWE2 160330Z 03008KT 23/10 A2984 RMK A01 T02250102  RH  046%=      5-min Rain = 0
KWE2 160331Z 03008KT 23/10 A2984 RMK A01 T02250103  RH  046%=      5-min Rain = 0
KWE2 160332Z 03008KT 22/10 A2984 RMK A01 T02240102  RH  046%=      5-min Rain = 0
KWE2 160333Z 02008KT 22/10 A2984 RMK A01 T02240102  RH  046%=      5-min Rain = 0
KWE2 160334Z 02008KT 23/10 A2984 RMK A01 T02250101  RH  045%=      5-min Rain = 0
KWE2 160335Z 02008KT 23/10 A2984 RMK A01 T02280102  RH  045%=      5-min Rain = 0
KWE2 160336Z 03009KT 23/10 A2984 RMK A01 T02280101  RH  044%=      5-min Rain = 0
KWE2 160337Z 03009KT 23/10 A2984 RMK A01 T02290101  RH  044%=      5-min Rain = 0
KWE2 160338Z 02011KT 23/10 A2984 RMK A01 T02290101  RH  044%=      5-min Rain = 0
KWE2 160339Z 03011KT 23/10 A2984 RMK A01 T02290100  RH  044%=      5-min Rain = 0
KWE2 160340Z 03011KT 23/10 A2984 RMK A01 T02300100  RH  044%=      5-min Rain = 0
KWE2 160341Z 03010KT 23/10 A2984 RMK A01 T02300100  RH  043%=      5-min Rain = 0
KWE2 160342Z 03008KT 23/10 A2984 RMK A01 T02300100  RH  044%=      5-min Rain = 0
KWE2 160343Z 03008KT 23/10 A2984 RMK A01 T02300099  RH  044%=      5-min Rain = 0
KWE2 160344Z 03007KT 23/10 A2984 RMK A01 T02290099  RH  044%=      5-min Rain = 0
KWE2 160345Z 03008KT 23/10 A2984 RMK A01 T02280099  RH  044%=      5-min Rain = 0
KWE2 160346Z 03008KT 23/10 A2984 RMK A01 T02280099  RH  044%=      5-min Rain = 0
KWE2 160347Z 02008KT 23/10 A2984 RMK A01 T02280099  RH  044%=      5-min Rain = 0
KWE2 160348Z 03008KT 23/10 A2984 RMK A01 T02280098  RH  044%=      5-min Rain = 0
KWE2 160349Z 03008KT 23/10 A2984 RMK A01 T02290098  RH  044%=      5-min Rain = 0
KWE2 160350Z 03008KT 23/10 A2984 RMK A01 T02290098  RH  044%=      5-min Rain = 0
KWE2 160351Z 03009KT 23/10 A2984 RMK A01 T02280098  RH  044%=      5-min Rain = 0
KWE2 160352Z 03009KT 23/10 A2984 RMK A01 T02280098  RH  044%=      5-min Rain = 0
KWE2 160353Z 03008KT 23/10 A2984 RMK A01 T02260097  RH  044%=      5-min Rain = 0
KWE2 160354Z 03010KT 23/10 A2984 RMK A01 T02260098  RH  044%=      5-min Rain = 0
KWE2 160355Z 03010KT 23/10 A2984 RMK A01 T02260097  RH  044%=      5-min Rain = 0
KWE2 160356Z 03011KT 23/10 A2984 RMK A01 T02260097  RH  044%=      5-min Rain = 0
KWE2 160357Z 03011KT 23/10 A2984 RMK A01 T02270096  RH  043%=      5-min Rain = 0
KWE2 160358Z 04009KT 23/10 A2984 RMK A01 T02270096  RH  043%=      5-min Rain = 0
KWE2 160359Z 04009KT 23/10 A2984 RMK A01 T02270096  RH  043%=      5-min Rain = 0
KWE2 160400Z 03008KT 23/10 A2984 RMK A01 T02260095  RH  043%=      5-min Rain = 0
KWE2 160401Z 04009KT 23/10 A2984 RMK A01 T02250095  RH  043%=      5-min Rain = 0
KWE2 160402Z 03008KT 23/10 A2984 RMK A01 T02250095  RH  044%=      5-min Rain = 0
KWE2 160403Z 03010KT 22/10 A2984 RMK A01 T02240095  RH  044%=      5-min Rain = 0
KWE2 160404Z 03010KT 23/09 A2984 RMK A01 T02250094  RH  043%=      5-min Rain = 0
KWE2 160405Z 03010KT 23/09 A2984 RMK A01 T02260094  RH  043%=      5-min Rain = 0
KWE2 160406Z 02008KT 23/09 A2984 RMK A01 T02270094  RH  043%=      5-min Rain = 0
KWE2 160407Z 01009KT 23/09 A2984 RMK A01 T02270094  RH  043%=      5-min Rain = 0
KWE2 160408Z 01008KT 23/09 A2984 RMK A01 T02270094  RH  043%=      5-min Rain = 0
KWE2 160409Z 01008KT 23/09 A2984 RMK A01 T02270094  RH  043%=      5-min Rain = 0
KWE2 160410Z 01008KT 23/09 A2984 RMK A01 T02250094  RH  043%=      5-min Rain = 0
KWE2 160411Z 01010KT 22/09 A2984 RMK A01 T02240094  RH  043%=      5-min Rain = 0
KWE2 160412Z 02010KT 22/09 A2985 RMK A01 T02230094  RH  044%=      5-min Rain = 0
KWE2 160413Z 02012KT 22/09 A2985 RMK A01 T02230094  RH  044%=      5-min Rain = 0
KWE2 160414Z 03012KT 22/09 A2985 RMK A01 T02220094  RH  044%=      5-min Rain = 0
KWE2 160415Z 03013KT 22/09 A2985 RMK A01 T02220094  RH  044%=      5-min Rain = 0
KWE2 160416Z 03012KT 22/09 A2985 RMK A01 T02230094  RH  044%=      5-min Rain = 0
KWE2 160417Z 03016G21KT 22/09 A2985 RMK A01 T02230094  RH  044%=      5-min Rain = 0
KWE2 160418Z 03015KT 23/09 A2985 RMK A01 T02250094  RH  043%=      5-min Rain = 0
KWE2 160419Z 03016KT 23/09 A2985 RMK A01 T02250094  RH  043%=      5-min Rain = 0
KWE2 160420Z 03016KT 23/09 A2985 RMK A01 T02250094  RH  043%=      5-min Rain = 0
KWE2 160421Z 03016KT 23/10 A2985 RMK A01 T02250095  RH  043%=      5-min Rain = 0
KWE2 160422Z 02017G22KT 23/10 A2985 RMK A01 T02250095  RH  043%=      5-min Rain = 0
KWE2 160423Z 02014KT 23/10 A2985 RMK A01 T02250095  RH  044%=      5-min Rain = 0
KWE2 160424Z 01015KT 23/10 A2985 RMK A01 T02250095  RH  044%=      5-min Rain = 0
KWE2 160425Z 01014KT 22/10 A2985 RMK A01 T02240095  RH  044%=      5-min Rain = 0
KWE2 160426Z 01014KT 22/10 A2985 RMK A01 T02230095  RH  044%=      5-min Rain = 0
KWE2 160427Z 01013KT 22/10 A2986 RMK A01 T02220095  RH  044%=      5-min Rain = 0
KWE2 160428Z 01012KT 22/10 A2986 RMK A01 T02220096  RH  045%=      5-min Rain = 0
KWE2 160429Z 00013KT 22/10 A2986 RMK A01 T02210096  RH  045%=      5-min Rain = 0
KWE2 160430Z 36012KT 22/10 A2986 RMK A01 T02210095  RH  045%=      5-min Rain = 0
KWE2 160431Z 36011KT 22/10 A2986 RMK A01 T02200095  RH  045%=      5-min Rain = 0
KWE2 160432Z 36012KT 22/10 A2986 RMK A01 T02200095  RH  045%=      5-min Rain = 0
KWE2 160433Z 01010KT 22/09 A2986 RMK A01 T02200094  RH  045%=      5-min Rain = 0
KWE2 160434Z 02010KT 22/09 A2987 RMK A01 T02190094  RH  045%=      5-min Rain = 0
KWE2 160435Z 02013KT 22/09 A2986 RMK A01 T02180094  RH  045%=      5-min Rain = 0
KWE2 160436Z 03014KT 22/09 A2986 RMK A01 T02180094  RH  045%=      5-min Rain = 0
KWE2 160437Z 04014KT 22/09 A2986 RMK A01 T02180094  RH  045%=      5-min Rain = 0
KWE2 160438Z 05013KT 22/10 A2986 RMK A01 T02180095  RH  045%=      5-min Rain = 0
KWE2 160439Z 05014KT 22/10 A2986 RMK A01 T02190097  RH  046%=      5-min Rain = 0
KWE2 160440Z 06013KT 22/10 A2987 RMK A01 T02210098  RH  046%=      5-min Rain = 0
KWE2 160441Z 06012KT 22/10 A2987 RMK A01 T02220100  RH  046%=      5-min Rain = 0
KWE2 160442Z 06012KT 22/10 A2987 RMK A01 T02230101  RH  046%=      5-min Rain = 0
KWE2 160443Z 06012KT 22/10 A2987 RMK A01 T02240102  RH  046%=      5-min Rain = 0
KWE2 160444Z 06012KT 23/10 A2987 RMK A01 T02250103  RH  046%=      5-min Rain = 0
KWE2 160445Z 05012KT 23/10 A2988 RMK A01 T02250103  RH  046%=      5-min Rain = 0
KWE2 160446Z 06012KT 23/10 A2988 RMK A01 T02250104  RH  046%=      5-min Rain = 0
KWE2 160447Z 05010KT 22/10 A2988 RMK A01 T02240103  RH  046%=      5-min Rain = 0
KWE2 160448Z 06013KT 22/10 A2988 RMK A01 T02230104  RH  047%=      5-min Rain = 0
KWE2 160449Z 05015KT 22/11 A2988 RMK A01 T02230105  RH  047%=      5-min Rain = 0
KWE2 160450Z 05011KT 22/11 A2988 RMK A01 T02230105  RH  047%=      5-min Rain = 0
KWE2 160451Z 05013KT 22/10 A2988 RMK A01 T02220104  RH  047%=      5-min Rain = 0
KWE2 160452Z 05014KT 22/10 A2988 RMK A01 T02220104  RH  047%=      5-min Rain = 0
KWE2 160453Z 05014KT 22/11 A2988 RMK A01 T02220105  RH  047%=      5-min Rain = 0
KWE2 160454Z 05014KT 22/11 A2988 RMK A01 T02210105  RH  048%=      5-min Rain = 0
KWE2 160455Z 05013KT 22/11 A2988 RMK A01 T02210106  RH  048%=      5-min Rain = 0
KWE2 160456Z 04011KT 22/11 A2988 RMK A01 T02210106  RH  048%=      5-min Rain = 0
KWE2 160457Z 05012KT 22/11 A2988 RMK A01 T02200107  RH  048%=      5-min Rain = 0
KWE2 160458Z 04010KT 22/11 A2989 RMK A01 T02200106  RH  048%=      5-min Rain = 0
KWE2 160459Z 03009KT 22/11 A2989 RMK A01 T02190106  RH  049%=      5-min Rain = 0

Page generated in 0.0334 seconds.